Flight Track Log - Related Links

Times and Time Zones

All times are in EDT time to prevent confusion due to time zone crossing. See the DAL268 flight status page for this flight to view local times or setup timezone preferences in your user account.

Time Position Orientation Groundspeed Altitude Reporting Facility
EDT Latitude Longitude Course Direction KTS MPH feet Rate Location/Type
Fri 10:05:47 PM 40.6210 -73.7850 180° South 176 203 200  Level FlightAware ADS-B
Fri 10:06:23 PM 40.5940 -73.8020 206° Southwest 183 211 1,500 1,875 Climbing FlightAware ADS-B
Fri 10:06:51 PM 40.5720 -73.8160 206° Southwest 189 217 2,200 1,636 Climbing FlightAware ADS-B
Fri 10:07:07 PM 40.5580 -73.8210 195° South 197 227 2,700 1,065 Climbing FlightAware ADS-B
Fri 10:07:53 PM 40.5250 -73.7850 140° Southeast 242 278 3,300 935 Climbing FlightAware ADS-B
Fri 10:08:24 PM 40.5270 -73.7390 87° East 263 303 3,900 1,200 Climbing FlightAware ADS-B
Fri 10:08:43 PM 40.5320 -73.7060 79° East 278 320 4,300 1,625 Climbing FlightAware ADS-B
Fri 10:09:12 PM 40.5350 -73.6570 85° East 298 343 5,200 2,143 Climbing FlightAware ADS-B
Fri 10:09:25 PM 40.5360 -73.6320 87° East 302 348 5,800 2,667 Climbing FlightAware ADS-B
Fri 10:10:06 PM 40.5390 -73.5570 87° East 311 358 7,600 2,585 Climbing FlightAware ADS-B
Fri 10:10:30 PM 40.5410 -73.5100 87° East 315 362 8,600 2,604 Climbing FlightAware ADS-B
Fri 10:10:59 PM 40.5440 -73.4540 86° East 318 366 9,900 1,688 Climbing FlightAware ADS-B
Fri 10:12:06 PM 40.5490 -73.3140 87° East 379 436 11,300 1,513 Climbing FlightAware ADS-B
Fri 10:12:54 PM 40.5520 -73.1990 88° East 401 461 12,800 2,044 Climbing FlightAware ADS-B
Fri 10:13:37 PM 40.5560 -73.0900 87° East 414 476 14,400 2,057 Climbing FlightAware ADS-B
Fri 10:14:04 PM 40.5590 -73.0270 86° East 419 482 15,200 1,950 Climbing FlightAware ADS-B
Fri 10:14:57 PM 40.5660 -72.8840 86° East 436 502 17,000 2,000 Climbing FlightAware ADS-B
Fri 10:15:49 PM 40.5520 -72.7460 98° East 446 513 18,700 1,771 Climbing FlightAware ADS-B
Fri 10:16:42 PM 40.5380 -72.6050 97° East 458 527 20,100 1,646 Climbing FlightAware ADS-B
Fri 10:17:42 PM 40.5210 -72.4310 97° East 470 541 21,800 1,500 Climbing FlightAware ADS-B
Fri 10:18:30 PM 40.5100 -72.2970 96° East 480 552 22,800 1,234 Climbing FlightAware ADS-B
Fri 10:19:29 PM 40.5510 -72.1330 72° East 475 547 24,000 1,290 Climbing FlightAware ADS-B
Fri 10:20:17 PM 40.6040 -72.0120 60° Northeast 482 555 25,100 1,313 Climbing FlightAware ADS-B
Fri 10:21:05 PM 40.6570 -71.8920 60° Northeast 488 562 26,100 1,282 Climbing FlightAware ADS-B
Fri 10:22:00 PM 40.7220 -71.7450 60° Northeast 495 570 27,300 1,212 Climbing FlightAware ADS-B
Fri 10:22:49 PM 40.7770 -71.6180 60° Northeast 500 575 28,200 1,154 Climbing FlightAware ADS-B
Fri 10:23:18 PM 40.8110 -71.5400 60° Northeast 501 577 28,800 1,300 Climbing FlightAware ADS-B
Fri 10:23:49 PM 40.8460 -71.4580 61° Northeast 501 577 29,500 1,263 Climbing FlightAware ADS-B
Fri 10:24:15 PM 40.8770 -71.3880 60° Northeast 502 578 30,000 1,043 Climbing FlightAware ADS-B
Fri 10:24:58 PM 40.9259 -71.2744 60° Northeast 503 579 30,700 659 Climbing FlightAware ADS-B
Fri 10:25:46 PM 40.9825 -71.1429 60° Northeast 506 582 31,000 198 Climbing FlightAware ADS-B
Fri 10:26:29 PM 41.0327 -71.0250 61° Northeast 510 587 31,000  Level FlightAware ADS-B
Fri 10:27:09 PM 41.0790 -70.9167 60° Northeast 509 586 31,000  Level FlightAware ADS-B
Fri 10:27:54 PM 41.1312 -70.7938 61° Northeast 513 590 31,000  Level FlightAware ADS-B
Fri 10:28:48 PM 41.1593 -70.7276 61° Northeast 519 597 31,000  Level FlightAware ADS-B (SBBR / BSB)
Fri 10:29:31 PM 41.2485 -70.5162 61° Northeast 521 600 31,000  Level FlightAware ADS-B (SBBR / BSB)
Fri 10:30:43 PM 41.3300 -70.3220 61° Northeast 520 598 31,000  Level FlightAware ADS-B
Fri 10:31:18 PM 41.3710 -70.2250 61° Northeast 523 602 31,000  Level FlightAware ADS-B
Fri 10:31:58 PM 41.4100 -70.1290 62° Northeast 523 602 31,000  Level FlightAware ADS-B
Fri 10:33:00 PM 41.4908 -69.9348 61° Northeast 518 596 31,000  Level FlightAware ADS-B
Fri 10:34:02 PM 41.5550 -69.7800 61° Northeast 520 598 31,000  Level FlightAware ADS-B
Fri 10:35:04 PM 41.6320 -69.5900 61° Northeast 520 598 31,000  Level FlightAware ADS-B
Fri 10:35:52 PM 41.6880 -69.4515 62° Northeast 518 596 31,000  Level FlightAware ADS-B
Fri 10:37:12 PM 41.7817 -69.2195 62° Northeast 525 604 31,000  Level FlightAware ADS-B
Fri 10:38:09 PM 41.8472 -69.0557 62° Northeast 530 610 31,000  Level FlightAware ADS-B
Fri 10:38:53 PM 41.8479 -69.0542 61° Northeast 534 615 31,000  Level FlightAware ADS-B
Fri 10:39:38 PM 41.9420 -68.8170 62° Northeast 536 617 31,000  Level FlightAware ADS-B
Fri 10:40:10 PM 41.9878 -68.7013 62° Northeast 537 618 31,000  Level FlightAware ADS-B (EPKK / KRK)
Fri 10:40:45 PM 42.0229 -68.6121 62° Northeast 539 620 31,000  Level FlightAware ADS-B
Fri 10:41:37 PM 42.0883 -68.4454 62° Northeast 541 623 31,000  Level FlightAware ADS-B
Fri 10:42:08 PM 42.1249 -68.3513 62° Northeast 543 625 31,000  Level FlightAware ADS-B
Fri 10:42:42 PM 42.1646 -68.2496 62° Northeast 545 627 31,000  Level FlightAware ADS-B
Fri 10:43:23 PM 42.2098 -68.1327 62° Northeast 546 628 31,000  Level FlightAware ADS-B
Fri 10:43:56 PM 42.1953 -68.1704 242° Southwest 546 628 31,000  Level FlightAware ADS-B (EPKK / KRK)
Fri 10:44:57 PM 42.3219 -67.8409 62° Northeast 547 629 31,000  Level FlightAware ADS-B
Fri 10:45:48 PM 42.3789 -67.6915 63° Northeast 549 632 31,000  Level FlightAware ADS-B
Fri 10:46:18 PM 42.4156 -67.5950 63° Northeast 550 633 31,000  Level FlightAware ADS-B
Fri 10:46:50 PM 42.4460 -67.5144 63° Northeast 550 633 31,000  Level FlightAware ADS-B
Fri 10:47:27 PM 42.4940 -67.3873 63° Northeast 551 634 31,000  Level FlightAware ADS-B
Fri 10:47:58 PM 42.5308 -67.2884 63° Northeast 552 635 31,000  Level FlightAware ADS-B
Fri 10:48:29 PM 42.5669 -67.1903 63° Northeast 553 636 31,000  Level FlightAware ADS-B
Fri 10:49:08 PM 42.6087 -67.0765 63° Northeast 551 634 31,000  Level FlightAware ADS-B
Fri 10:50:14 PM 42.6811 -66.8781 64° Northeast 552 635 31,000  Level FlightAware ADS-B
Fri 10:51:01 PM 42.7312 -66.7398 64° Northeast 553 636 31,000  Level FlightAware ADS-B
Fri 10:51:32 PM 42.7728 -66.6246 64° Northeast 555 639 31,000  Level FlightAware ADS-B
Fri 10:52:11 PM 42.8169 -66.5025 64° Northeast 556 640 31,000  Level FlightAware ADS-B
Fri 10:52:41 PM 42.8509 -66.4077 64° Northeast 557 641 31,000  Level FlightAware ADS-B
Fri 10:53:13 PM 42.8878 -66.3050 64° Northeast 560 644 31,000  Level FlightAware ADS-B
Fri 10:53:43 PM 42.9187 -66.2186 64° Northeast 562 647 31,000  Level FlightAware ADS-B
Fri 10:54:24 PM 42.9634 -66.0939 64° Northeast 564 649 31,000  Level FlightAware ADS-B
Fri 10:55:04 PM 43.0145 -65.9499 64° Northeast 568 654 31,000  Level FlightAware ADS-B
Fri 10:55:35 PM 43.0434 -65.8683 64° Northeast 569 655 31,000  Level FlightAware ADS-B
Fri 10:56:05 PM 43.0841 -65.7525 64° Northeast 572 658 31,000  Level FlightAware ADS-B
Fri 10:56:36 PM 43.1193 -65.6519 64° Northeast 574 661 31,000  Level FlightAware ADS-B
Fri 10:57:11 PM 43.1582 -65.5401 64° Northeast 575 662 31,000  Level FlightAware ADS-B
Fri 10:57:51 PM 43.2050 -65.4045 65° Northeast 577 664 31,000  Level FlightAware ADS-B
Fri 10:58:21 PM 43.2365 -65.3128 65° Northeast 580 667 31,000  Level FlightAware ADS-B
Fri 10:58:52 PM 43.2745 -65.2026 65° Northeast 581 669 31,000  Level FlightAware ADS-B
Fri 10:59:31 PM 43.3199 -65.0697 65° Northeast 583 671 31,000  Level FlightAware ADS-B
Fri 11:00:13 PM 43.3671 -64.9309 65° Northeast 585 673 31,000  Level FlightAware ADS-B
Fri 11:00:43 PM 43.3956 -64.8469 65° Northeast 588 677 31,000  Level FlightAware ADS-B
Fri 11:01:14 PM 43.4361 -64.7267 65° Northeast 588 677 31,000  Level FlightAware ADS-B
Fri 11:01:53 PM 43.4801 -64.5950 65° Northeast 590 679 31,000  Level FlightAware ADS-B
Fri 11:02:24 PM 43.5089 -64.5088 65° Northeast 590 679 31,000  Level FlightAware ADS-B
Fri 11:02:55 PM 43.5432 -64.4056 65° Northeast 590 679 31,000  Level FlightAware ADS-B
Fri 11:03:28 PM 43.5894 -64.2661 65° Northeast 591 680 31,000  Level FlightAware ADS-B
Fri 11:04:00 PM 43.6215 -64.1686 65° Northeast 590 679 31,000  Level FlightAware ADS-B
Fri 11:04:34 PM 43.6605 -64.0497 66° East 591 680 31,000  Level FlightAware ADS-B
Fri 11:05:05 PM 43.6984 -63.9341 66° East 592 681 31,000  Level FlightAware ADS-B
Fri 11:05:46 PM 43.7412 -63.8028 66° East 595 685 31,000  Level FlightAware ADS-B
Fri 11:06:26 PM 43.7896 -63.6531 66° East 596 686 31,000  Level FlightAware ADS-B
Fri 11:07:02 PM 43.8306 -63.5263 66° East 597 687 31,000  Level FlightAware ADS-B
Fri 11:07:36 PM 43.8676 -63.4111 66° East 597 687 31,000  Level FlightAware ADS-B
Fri 11:08:27 PM 43.9254 -63.2297 66° East 596 686 31,000  Level FlightAware ADS-B
Fri 11:09:07 PM 43.9697 -63.0901 66° East 596 686 31,000  Level FlightAware ADS-B
Fri 11:09:39 PM 44.0033 -62.9841 66° East 598 688 31,000  Level FlightAware ADS-B
Fri 11:10:43 PM 44.0764 -62.7508 66° East 605 696 31,000  Level FlightAware ADS-B
Fri 11:11:35 PM 44.1000 -62.5500 66° East 600 690 31,000  Level Moncton Center
Fri 11:12:35 PM 44.1833 -62.3500 60° Northeast 610 702 31,000  Level Moncton Center
Fri 11:13:35 PM 44.2500 -62.1333 67° East 610 702 31,000  Level Moncton Center
Fri 11:14:35 PM 44.3167 -61.9000 68° East 620 713 31,000  Level Moncton Center
Fri 11:15:35 PM 44.3833 -61.6833 67° East 620 713 31,000 308 Level Moncton Center
Fri 11:21:05 PM 44.7650 -60.4400 67° East 636 732 33,000 331 Climbing FlightAware ADS-B
Fri 11:21:37 PM 44.8000 -60.3170 68° East 639 735 33,000  Level FlightAware ADS-B
Fri 11:22:35 PM 44.8630 -60.0910 68° East 641 738 33,000  Level FlightAware ADS-B
Fri 11:23:31 PM 44.9240 -59.8740 68° East 642 739 33,000  Level FlightAware ADS-B
Fri 11:24:33 PM 44.9910 -59.6330 68° East 641 738 33,000  Level FlightAware ADS-B
Fri 11:25:17 PM 45.0390 -59.4580 69° East 641 738 33,000  Level FlightAware ADS-B
Fri 11:25:45 PM 45.0680 -59.3510 69° East 639 735 33,000  Level FlightAware ADS-B
Fri 11:26:17 PM 45.1020 -59.2260 69° East 639 735 33,000  Level FlightAware ADS-B
Fri 11:27:17 PM 45.1650 -58.9920 69° East 638 734 33,000  Level FlightAware ADS-B
Fri 11:28:17 PM 45.2280 -58.7550 69° East 637 733 33,000  Level FlightAware ADS-B
Fri 11:29:05 PM 45.2770 -58.5700 69° East 638 734 33,000  Level FlightAware ADS-B
Fri 11:29:57 PM 45.3310 -58.3640 69° East 638 734 33,000  Level FlightAware ADS-B
Fri 11:30:33 PM 45.3670 -58.2250 70° East 638 734 33,000  Level FlightAware ADS-B
Fri 11:31:15 PM 45.4090 -58.0600 70° East 637 733 33,000  Level FlightAware ADS-B
Fri 11:31:57 PM 45.4510 -57.8990 70° East 637 733 33,000  Level FlightAware ADS-B
Fri 11:32:30 PM 45.4810 -57.7810 70° East 637 733 33,000  Level FlightAware ADS-B
Fri 11:32:54 PM 45.5010 -57.7000 71° East 637 733 33,000  Level FlightAware ADS-B
Fri 11:33:30 PM 45.5320 -57.5790 70° East 637 733 33,000  Level FlightAware ADS-B
Fri 11:34:19 PM 45.5740 -57.4140 70° East 637 733 33,000  Level FlightAware ADS-B
Fri 11:35:19 PM 45.6250 -57.2130 70° East 637 733 33,000  Level FlightAware ADS-B
Fri 11:36:26 PM 45.7140 -56.8280 72° East 633 728 33,000  Level FlightAware ADS-B
Fri 11:37:17 PM 45.7590 -56.6220 73° East 633 728 33,000  Level FlightAware ADS-B
Fri 11:38:05 PM 45.8010 -56.4320 72° East 635 731 33,000  Level FlightAware ADS-B
Fri 11:39:13 PM 45.8610 -56.1570 73° East 638 734 33,000  Level FlightAware ADS-B
Fri 11:40:09 PM 45.9090 -55.9310 73° East 639 735 33,000  Level FlightAware ADS-B
Fri 11:40:42 PM 45.9380 -55.7990 72° East 638 734 33,000  Level FlightAware ADS-B
Fri 11:41:27 PM 45.9770 -55.6140 73° East 639 735 33,000  Level FlightAware ADS-B
Fri 11:42:27 PM 46.0280 -55.3700 73° East 640 736 33,000  Level FlightAware ADS-B
Fri 11:42:56 PM 46.0520 -55.2520 74° East 640 736 33,000  Level FlightAware ADS-B
Fri 11:43:28 PM 46.0790 -55.1230 73° East 641 738 33,000  Level FlightAware ADS-B
Fri 11:44:00 PM 46.1070 -54.9880 73° East 642 739 33,000  Level FlightAware ADS-B
Fri 11:44:48 PM 46.1470 -54.7930 73° East 642 739 33,000  Level FlightAware ADS-B
Fri 11:45:39 PM 46.1890 -54.5850 74° East 643 740 33,000  Level FlightAware ADS-B
Fri 11:46:39 PM 46.2380 -54.3370 74° East 643 740 33,000  Level FlightAware ADS-B
Fri 11:47:36 PM 46.2840 -54.1020 74° East 642 739 33,000  Level FlightAware ADS-B
Fri 11:48:00 PM 46.3030 -54.0040 74° East 642 739 33,000  Level FlightAware ADS-B
Fri 11:48:28 PM 46.3260 -53.8880 74° East 643 740 33,000  Level FlightAware ADS-B
Fri 11:49:15 PM 46.3630 -53.6900 75° East 644 741 33,000  Level FlightAware ADS-B
Fri 11:49:45 PM 46.3870 -53.5660 74° East 642 739 33,000  Level FlightAware ADS-B
Fri 11:50:46 PM 46.4350 -53.3120 75° East 644 741 33,000  Level FlightAware ADS-B
Fri 11:51:32 PM 46.4710 -53.1220 75° East 645 742 33,000  Level FlightAware ADS-B
Fri 11:52:00 PM 46.4930 -53.0040 75° East 645 742 33,000  Level FlightAware ADS-B
Fri 11:52:32 PM 46.5170 -52.8720 75° East 646 743 33,000  Level FlightAware ADS-B
Fri 11:53:33 PM 46.5640 -52.6140 75° East 650 748 33,000  Level FlightAware ADS-B
Fri 11:54:14 PM 46.5950 -52.4390 75° East 651 749 33,000  Level FlightAware ADS-B
Fri 11:54:38 PM 46.6130 -52.3430 75° East 651 749 33,000  Level FlightAware ADS-B
Fri 11:55:14 PM 46.6400 -52.1850 76° East 653 751 33,000  Level FlightAware ADS-B
Fri 11:56:14 PM 46.6850 -51.9300 75° East 656 755 33,000  Level FlightAware ADS-B
Fri 11:56:42 PM 46.7060 -51.8090 76° East 657 756 33,000  Level FlightAware ADS-B
Fri 11:57:41 PM 46.7490 -51.5550 76° East 659 758 33,000  Level FlightAware ADS-B
Fri 11:58:33 PM 46.7870 -51.3310 76° East 662 762 33,000  Level FlightAware ADS-B
Fri 11:59:17 PM 46.8190 -51.1410 76° East 665 765 33,000  Level FlightAware ADS-B
Sat 12:00:14 AM 46.8590 -50.8930 77° East 669 770 33,000  Level FlightAware ADS-B
Sat 12:01:14 AM 46.9030 -50.6260 76° East 671 772 33,000  Level FlightAware ADS-B
Sat 12:01:42 AM 46.9230 -50.5030 77° East 672 773 33,000  Level FlightAware ADS-B
Sat 12:02:13 AM 46.9440 -50.3670 77° East 673 774 33,000  Level FlightAware ADS-B
Sat 12:03:05 AM 46.9810 -50.1350 77° East 674 776 33,000  Level FlightAware ADS-B
Sat 12:04:01 AM 47.0300 -49.8890 74° East 681 784 33,000  Level FlightAware ADS-B
Sat 12:04:53 AM 47.0850 -49.6640 70° East 681 784 33,000  Level FlightAware ADS-B
Sat 12:05:17 AM 47.1110 -49.5610 70° East 681 784 33,000  Level FlightAware ADS-B
Sat 12:06:00 AM 47.0000 -50.0000 70° East 678 780 33,000  Level ETMS Enhanced Traffic Management System
Sat 12:06:13 AM 47.1720 -49.3190 70° East 679 781 33,000  Level FlightAware ADS-B
Sat 12:06:42 AM 47.2020 -49.1930 71° East 678 780 33,000  Level FlightAware ADS-B
Sat 12:07:35 AM 47.2540 -48.9820 70° East 677 779 33,000  Level FlightAware ADS-B
Sat 12:08:05 AM 47.2880 -48.8390 71° East 676 778 33,000  Level FlightAware ADS-B
Sat 12:09:21 AM 47.3570 -48.5590 70° East 676 778 33,000  Level FlightAware ADS-B
Sat 12:09:57 AM 47.3900 -48.4270 70° East 676 778 33,000  Level FlightAware ADS-B
Sat 12:10:58 AM 47.4450 -48.2010 70° East 676 778 33,000  Level FlightAware ADS-B
Sat 12:11:34 AM 47.4780 -48.0680 70° East 676 778 33,000  Level FlightAware ADS-B
Sat 12:12:08 AM 47.5090 -47.9430 70° East 676 778 33,000  Level FlightAware ADS-B
Sat 12:12:44 AM 47.5410 -47.8090 70° East 676 778 33,000  Level FlightAware ADS-B
Sat 12:13:21 AM 47.5750 -47.6720 70° East 676 778 33,000  Level FlightAware ADS-B
Sat 12:13:46 AM 47.5980 -47.5800 70° East 676 778 33,000  Level FlightAware ADS-B
Sat 12:14:22 AM 47.6300 -47.4460 70° East 676 778 33,000  Level FlightAware ADS-B
Sat 12:15:23 AM 47.6860 -47.2200 70° East 676 778 33,000  Level FlightAware ADS-B
Sat 12:16:13 AM 47.7310 -47.0340 70° East 676 778 33,000  Level FlightAware ADS-B
Sat 12:16:37 AM 47.7530 -46.9450 70° East 676 778 33,000  Level FlightAware ADS-B
Sat 12:17:26 AM 47.7980 -46.7630 70° East 676 778 33,000  Level FlightAware ADS-B
Sat 12:18:03 AM 47.8310 -46.6250 70° East 676 778 33,000  Level FlightAware ADS-B
Sat 12:24:00 AM 48.0682 -45.3458 74° East  Level FlightAware Approximate
Sat 12:25:00 AM 48.1067 -45.1296 75° East  Level FlightAware Approximate
Sat 12:26:00 AM 48.1448 -44.9132 75° East  Level FlightAware Approximate
Sat 12:27:00 AM 48.1843 -44.6959 75° East  Level FlightAware Approximate
Sat 12:28:00 AM 48.2235 -44.4796 75° East  Level FlightAware Approximate
Sat 12:29:00 AM 48.2623 -44.2629 75° East  Level FlightAware Approximate
Sat 12:30:00 AM 48.3007 -44.0459 75° East  Level FlightAware Approximate
Sat 12:31:00 AM 48.3387 -43.8286 75° East  Level FlightAware Approximate
Sat 12:32:00 AM 48.3776 -43.6115 73° East  Level FlightAware Approximate
Sat 12:33:00 AM 48.4199 -43.3957 73° East  Level FlightAware Approximate
Sat 12:34:00 AM 48.4619 -43.1796 74° East  Level FlightAware Approximate
Sat 12:35:00 AM 48.5034 -42.9630 74° East  Level FlightAware Approximate
Sat 12:36:00 AM 48.5446 -42.7462 74° East  Level FlightAware Approximate
Sat 12:37:00 AM 48.5853 -42.5289 74° East  Level FlightAware Approximate
Sat 12:38:00 AM 48.6243 -42.3108 75° East  Level FlightAware Approximate
Sat 12:39:00 AM 48.6621 -42.0920 75° East  Level FlightAware Approximate
Sat 12:40:00 AM 48.6995 -41.8729 75° East  Level FlightAware Approximate
Sat 12:41:00 AM 48.7365 -41.6535 76° East  Level FlightAware Approximate
Sat 12:42:00 AM 48.7730 -41.4337 76° East  Level FlightAware Approximate
Sat 12:43:00 AM 48.8091 -41.2136 76° East  Level FlightAware Approximate
Sat 12:44:00 AM 48.8449 -40.9932 76° East  Level FlightAware Approximate
Sat 12:45:00 AM 48.8801 -40.7725 76° East  Level FlightAware Approximate
Sat 12:46:00 AM 48.9150 -40.5515 76° East  Level FlightAware Approximate
Sat 12:47:00 AM 49.0000 -40.0000 69° East 654 753 33,000  Level ETMS Enhanced Traffic Management System
Sat 12:47:00 AM 48.9495 -40.3302 77° East  Level FlightAware Approximate
Sat 12:48:00 AM 48.9835 -40.1086 77° East  Level FlightAware Approximate
Sat 12:49:00 AM 49.0274 -39.8915 69° East  Level FlightAware Approximate
Sat 12:50:00 AM 49.0807 -39.6785 69° East  Level FlightAware Approximate
Sat 12:51:00 AM 49.1337 -39.4650 69° East  Level FlightAware Approximate
Sat 12:52:00 AM 49.1862 -39.2511 69° East  Level FlightAware Approximate
Sat 12:53:00 AM 49.7999 -36.5828 72° East 654 753 33,000  Level FlightAware Transoceanic
Sat 12:54:00 AM 49.8572 -36.3154 72° East 654 753 33,000  Level FlightAware Transoceanic
Sat 12:55:00 AM 49.9139 -36.0474 72° East 654 753 33,000  Level FlightAware Transoceanic
Sat 12:56:00 AM 49.9700 -35.7787 72° East 654 753 33,000  Level FlightAware Transoceanic
Sat 12:57:00 AM 50.0255 -35.5094 72° East 654 753 33,000  Level FlightAware Transoceanic
Sat 12:58:00 AM 50.0803 -35.2395 73° East 654 753 33,000  Level FlightAware Transoceanic
Sat 12:59:00 AM 50.1345 -34.9689 73° East 654 753 33,000  Level FlightAware Transoceanic
Sat 01:00:00 AM 50.1881 -34.6978 73° East 654 753 33,000  Level FlightAware Transoceanic
Sat 01:01:00 AM 50.2410 -34.4260 73° East 654 753 33,000  Level FlightAware Transoceanic
Sat 01:02:00 AM 50.2933 -34.1537 73° East 654 753 33,000  Level FlightAware Transoceanic
Sat 01:03:00 AM 50.3450 -33.8808 74° East 654 753 33,000  Level FlightAware Transoceanic
Sat 01:04:00 AM 50.3960 -33.6072 74° East 654 753 33,000  Level FlightAware Transoceanic
Sat 01:05:00 AM 50.4464 -33.3331 74° East 654 753 33,000  Level FlightAware Transoceanic
Sat 01:06:00 AM 50.4962 -33.0584 74° East 654 753 33,000  Level FlightAware Transoceanic
Sat 01:07:00 AM 50.5452 -32.7831 74° East 654 753 33,000  Level FlightAware Transoceanic
Sat 01:08:00 AM 50.5937 -32.5073 75° East 654 753 33,000  Level FlightAware Transoceanic
Sat 01:09:00 AM 50.6415 -32.2309 75° East 654 753 33,000  Level FlightAware Transoceanic
Sat 01:10:00 AM 50.6886 -31.9539 75° East 654 753 33,000  Level FlightAware Transoceanic
Sat 01:11:00 AM 50.7351 -31.6764 75° East 654 753 33,000  Level FlightAware Transoceanic
Sat 01:12:00 AM 50.7809 -31.3983 76° East 654 753 33,000  Level FlightAware Transoceanic
Sat 01:13:00 AM 50.8260 -31.1197 76° East 654 753 33,000  Level FlightAware Transoceanic
Sat 01:14:00 AM 50.8705 -30.8406 76° East 654 753 33,000  Level FlightAware Transoceanic
Sat 01:15:00 AM 50.9144 -30.5609 76° East 654 753 33,000  Level FlightAware Transoceanic
Sat 01:16:00 AM 50.9575 -30.2807 76° East 654 753 33,000  Level FlightAware Transoceanic
Sat 01:17:00 AM 50.9925 -30.0500 76° East  Level FlightAware Approximate
Sat 01:18:00 AM 51.0270 -29.8189 77° East  Level FlightAware Approximate
Sat 01:19:00 AM 51.0190 -29.8688 77° East  Level FlightAware Approximate
Sat 01:19:00 AM 51.0000 -30.0000 77° East 612 704 33,000  Level ETMS Enhanced Traffic Management System
Sat 01:20:00 AM 51.0522 -29.6371 77° East  Level FlightAware Approximate
Sat 01:21:00 AM 51.0846 -29.4074 77° East  Level FlightAware Approximate
Sat 01:22:00 AM 51.1165 -29.1775 77° East  Level FlightAware Approximate
Sat 01:23:00 AM 51.1480 -28.9471 78° East  Level FlightAware Approximate
Sat 01:24:00 AM 51.1790 -28.7165 78° East  Level FlightAware Approximate
Sat 01:25:00 AM 51.3210 -27.6107 79° East 612 704 33,000  Level FlightAware Transoceanic
Sat 01:26:00 AM 51.3536 -27.3432 79° East 612 704 33,000  Level FlightAware Transoceanic
Sat 01:27:00 AM 51.3857 -27.0753 79° East 612 704 33,000  Level FlightAware Transoceanic
Sat 01:28:00 AM 51.4171 -26.8071 79° East 612 704 33,000  Level FlightAware Transoceanic
Sat 01:29:00 AM 51.4479 -26.5385 80° East 612 704 33,000  Level FlightAware Transoceanic
Sat 01:30:00 AM 51.4781 -26.2696 80° East 612 704 33,000  Level FlightAware Transoceanic
Sat 01:31:00 AM 51.5077 -26.0002 80° East 612 704 33,000  Level FlightAware Transoceanic
Sat 01:32:00 AM 51.5367 -25.7306 80° East 612 704 33,000  Level FlightAware Transoceanic
Sat 01:33:00 AM 51.5650 -25.4606 81° East 612 704 33,000  Level FlightAware Transoceanic
Sat 01:34:00 AM 51.5927 -25.1903 81° East 612 704 33,000  Level FlightAware Transoceanic
Sat 01:35:00 AM 51.6198 -24.9196 81° East 612 704 33,000  Level FlightAware Transoceanic
Sat 01:36:00 AM 51.6463 -24.6487 81° East 612 704 33,000  Level FlightAware Transoceanic
Sat 01:37:00 AM 51.6722 -24.3774 81° East 612 704 33,000  Level FlightAware Transoceanic
Sat 01:38:00 AM 51.6974 -24.1058 82° East 612 704 33,000  Level FlightAware Transoceanic
Sat 01:39:00 AM 51.7220 -23.8339 82° East 612 704 33,000  Level FlightAware Transoceanic
Sat 01:40:00 AM 51.7460 -23.5617 82° East 612 704 33,000  Level FlightAware Transoceanic
Sat 01:41:00 AM 51.7693 -23.2892 82° East 612 704 33,000  Level FlightAware Transoceanic
Sat 01:42:00 AM 51.7920 -23.0165 82° East 612 704 33,000  Level FlightAware Transoceanic
Sat 01:43:00 AM 51.8141 -22.7435 83° East 612 704 33,000  Level FlightAware Transoceanic
Sat 01:44:00 AM 51.8356 -22.4702 83° East 612 704 33,000  Level FlightAware Transoceanic
Sat 01:45:00 AM 51.8564 -22.1967 83° East 612 704 33,000  Level FlightAware Transoceanic
Sat 01:46:00 AM 51.8766 -21.9229 83° East 612 704 33,000  Level FlightAware Transoceanic
Sat 01:47:00 AM 51.8961 -21.6488 84° East 612 704 33,000  Level FlightAware Transoceanic
Sat 01:48:00 AM 51.9150 -21.3746 84° East 612 704 33,000  Level FlightAware Transoceanic
Sat 01:49:00 AM 51.9333 -21.1001 84° East 612 704 33,000  Level FlightAware Transoceanic
Sat 01:50:00 AM 51.9509 -20.8254 84° East 612 704 33,000  Level FlightAware Transoceanic
Sat 01:51:00 AM 51.9679 -20.5504 84° East 612 704 33,000  Level FlightAware Transoceanic
Sat 01:52:00 AM 51.9843 -20.2753 85° East 612 704 33,000 65 Level FlightAware Transoceanic
Sat 01:53:00 AM 51.9980 -20.0361 85° East  Level FlightAware Approximate
Sat 01:54:00 AM 52.0112 -19.7968 85° East  Level FlightAware Approximate
Sat 01:55:00 AM 52.0062 -19.8326 86° East  Level FlightAware Approximate
Sat 01:56:00 AM 52.0147 -19.5927 87° East  Level FlightAware Approximate
Sat 01:57:00 AM 52.0228 -19.3527 87° East  Level FlightAware Approximate
Sat 01:58:00 AM 52.0303 -19.1126 87° East  Level FlightAware Approximate
Sat 01:59:00 AM 52.0373 -18.8725 87° East  Level FlightAware Approximate
Sat 02:00:00 AM 52.0439 -18.6323 87° East  Level FlightAware Approximate
Sat 02:01:00 AM 52.0499 -18.3920 88° East  Level FlightAware Approximate
Sat 02:02:00 AM 52.0555 -18.1516 88° East  Level FlightAware Approximate
Sat 02:03:00 AM 52.0606 -17.9112 88° East  Level FlightAware Approximate
Sat 02:04:00 AM 52.0652 -17.6707 88° East  Level FlightAware Approximate
Sat 02:05:00 AM 52.0693 -17.4302 88° East  Level FlightAware Approximate
Sat 02:06:00 AM 52.0729 -17.1896 89° East  Level FlightAware Approximate
Sat 02:07:00 AM 52.0761 -16.9490 89° East  Level FlightAware Approximate
Sat 02:08:00 AM 52.0787 -16.7084 89° East  Level FlightAware Approximate
Sat 02:09:00 AM 52.0808 -16.4678 89° East  Level FlightAware Approximate
Sat 02:10:00 AM 52.0825 -16.2271 89° East  Level FlightAware Approximate
Sat 02:11:00 AM 52.0837 -15.9864 89° East  Level FlightAware Approximate
Sat 02:12:00 AM 52.0844 -15.7457 90° East  Level FlightAware Approximate
Sat 02:13:00 AM 52.0845 -15.5050 90° East  Level FlightAware Approximate
Sat 02:14:00 AM 52.0842 -15.2643 90° East  Level FlightAware Approximate
Sat 02:15:00 AM 52.0834 -15.0236 90° East  Level FlightAware Approximate
Sat 02:16:00 AM 52.0828 -14.7829 90° East  Level FlightAware Approximate
Sat 02:17:00 AM 52.0817 -14.5422 90° East  Level FlightAware Approximate
Sat 02:18:00 AM 52.0801 -14.3015 91° East  Level FlightAware Approximate
Sat 02:19:00 AM 52.0780 -14.0609 91° East  Level FlightAware Approximate
Sat 02:20:00 AM 52.0755 -13.8202 91° East  Level FlightAware Approximate
Sat 02:21:00 AM 52.0724 -13.5796 91° East  Level FlightAware Approximate
Sat 02:21:53 AM 52.0150 -12.9090 91° East 550 633 35,000  Level FlightAware ADS-B
Sat 02:22:00 AM 52.0689 -13.3391 91° East  Level FlightAware Approximate
Sat 02:23:00 AM 52.0648 -13.0985 91° East  Level FlightAware Approximate
Sat 02:23:02 AM 52.0150 -13.0000 270° West 176 203 35,000  Level FlightAware ADS-B
Sat 02:24:56 AM 52.0050 -12.1510 91° East 542 624 35,000  Level FlightAware ADS-B
Sat 02:25:47 AM 52.0020 -11.9240 91° East 545 627 35,000  Level FlightAware ADS-B
Sat 02:26:47 AM 51.9980 -11.7000 92° East 549 632 35,000  Level FlightAware ADS-B
Sat 02:27:44 AM 51.9930 -11.4660 92° East 549 632 35,000  Level FlightAware ADS-B
Sat 02:28:15 AM 51.9900 -11.3340 92° East 550 633 35,000  Level FlightAware ADS-B
Sat 02:29:05 AM 51.9860 -11.1350 92° East 547 629 35,000  Level FlightAware ADS-B
Sat 02:29:35 AM 51.9830 -10.9900 92° East 546 628 35,000  Level FlightAware ADS-B
Sat 02:30:16 AM 51.9790 -10.8250 92° East 545 627 35,000  Level FlightAware ADS-B
Sat 02:30:51 AM 51.9750 -10.6840 93° East 545 627 35,000  Level FlightAware ADS-B
Sat 02:31:57 AM 51.9680 -10.4130 92° East 541 623 35,000  Level FlightAware ADS-B
Sat 02:32:22 AM 51.9650 -10.3080 93° East 540 621 35,000  Level FlightAware ADS-B
Sat 02:34:02 AM 51.9550 -9.9815 93° East 534 615 35,000  Level FlightAware ADS-B (EPBY / BZG)
Sat 02:34:41 AM 51.9494 -9.8066 93° East 534 615 35,000  Level FlightAware ADS-B (EPBY / BZG)
Sat 02:35:21 AM 51.9437 -9.6398 93° East 534 615 35,000  Level FlightAware ADS-B (EPBY / BZG)
Sat 02:36:21 AM 51.9353 -9.4021 93° East 536 617 35,000  Level FlightAware ADS-B (EPBY / BZG)
Sat 02:37:00 AM 51.9296 -9.2489 93° East 537 618 35,000  Level FlightAware ADS-B (EPBY / BZG)
Sat 02:37:42 AM 51.9231 -9.0804 94° East 538 619 35,000  Level FlightAware ADS-B (EPBY / BZG)
Sat 02:38:22 AM 51.9165 -8.9182 94° East 538 619 35,000  Level FlightAware ADS-B (EPBY / BZG)
Sat 02:39:00 AM 51.9102 -8.7624 94° East 537 618 35,000  Level FlightAware ADS-B (EPBY / BZG)
Sat 02:39:57 AM 51.9006 -8.5365 94° East 534 615 35,000  Level FlightAware ADS-B (EPBY / BZG)
Sat 02:40:30 AM 51.8949 -8.4053 94° East 533 613 35,000  Level FlightAware ADS-B (EPBY / BZG)
Sat 02:41:02 AM 51.8893 -8.2809 94° East 533 613 35,000  Level FlightAware ADS-B (EPBY / BZG)
Sat 02:41:32 AM 51.8837 -8.1657 94° East 533 613 35,000  Level FlightAware ADS-B (EPBY / BZG)
Sat 02:42:02 AM 51.8779 -8.0422 94° East 531 611 35,000  Level FlightAware ADS-B (EPBY / BZG)
Sat 02:42:42 AM 51.8704 -7.8857 94° East 530 610 35,000  Level FlightAware ADS-B (EPBY / BZG)
Sat 02:43:22 AM 51.8635 -7.7441 94° East 529 609 35,000  Level FlightAware ADS-B (EPBY / BZG)
Sat 02:43:52 AM 51.8566 -7.6074 95° East 529 609 35,000  Level FlightAware ADS-B (EPBY / BZG)
Sat 02:44:30 AM 51.8489 -7.4576 95° East 528 608 35,000  Level FlightAware ADS-B (EPBY / BZG)
Sat 02:45:21 AM 51.8384 -7.2601 95° East 528 608 35,000  Level FlightAware ADS-B (EPBY / BZG)
Sat 02:45:52 AM 51.8319 -7.1398 95° East 527 606 35,000  Level FlightAware ADS-B (EPBY / BZG)
Sat 02:46:22 AM 51.8255 -7.0222 95° East 527 606 35,000  Level FlightAware ADS-B (EPBY / BZG)
Sat 02:47:01 AM 51.8168 -6.8671 95° East 526 605 35,000  Level FlightAware ADS-B (EPBY / BZG)
Sat 02:47:32 AM 51.8097 -6.7458 95° East 526 605 35,000  Level FlightAware ADS-B (EPBY / BZG)
Sat 02:48:02 AM 51.8031 -6.6301 95° East 525 604 35,000  Level FlightAware ADS-B (EPBY / BZG)
Sat 02:48:32 AM 51.7962 -6.5129 95° East 526 605 35,000  Level FlightAware ADS-B (EPBY / BZG)
Sat 02:49:12 AM 51.7916 -6.3879 93° East 526 605 35,000  Level FlightAware ADS-B (EPBY / BZG)
Sat 02:49:51 AM 51.7856 -6.2042 93° East 526 605 35,000  Level FlightAware ADS-B (EPBY / BZG)
Sat 02:50:31 AM 51.7804 -6.0613 93° East 526 605 35,000  Level FlightAware ADS-B (EPBY / BZG)
Sat 02:51:06 AM 51.7749 -5.9095 93° East 525 604 35,000  Level FlightAware ADS-B (EPBY / BZG)
Sat 02:51:37 AM 51.7703 -5.7886 94° East 525 604 35,000  Level FlightAware ADS-B (EPBY / BZG)
Sat 02:52:20 AM 51.7634 -5.6185 94° East 523 602 35,000  Level FlightAware ADS-B (EGCW)
Sat 02:52:50 AM 51.7564 -5.4505 94° East 522 601 35,000  Level FlightAware ADS-B
Sat 02:53:20 AM 51.7516 -5.3400 94° East 520 598 35,000  Level FlightAware ADS-B (EGCW)
Sat 02:53:50 AM 51.7463 -5.2243 94° East 519 597 35,000  Level FlightAware ADS-B (EGCW)
Sat 02:54:20 AM 51.7409 -5.1053 94° East 519 597 35,000  Level FlightAware ADS-B (EGCW)
Sat 02:54:52 AM 51.7353 -4.9790 94° East 521 600 35,000  Level FlightAware ADS-B (EGCW)
Sat 02:55:29 AM 51.7339 -4.8416 91° East 522 601 35,000  Level FlightAware ADS-B
Sat 02:55:46 AM 51.7337 -4.7819 90° East 522 601 35,000  Level FlightAware ADS-B (LERL / CQM)
Sat 02:56:27 AM 51.7131 -4.6223 90° East 496 571 35,000  Level FlightAware UK
Sat 02:56:42 AM 51.7329 -4.5532 90° East 523 602 35,000  Level FlightAware ADS-B (EGCW)
Sat 02:57:22 AM 51.7317 -4.3983 91° East 522 601 35,000  Level FlightAware ADS-B
Sat 02:57:30 AM 51.7315 -4.3643 90° East 522 601 35,000  Level FlightAware ADS-B (LERL / CQM)
Sat 02:57:54 AM 51.7307 -4.2714 91° East 522 601 35,000  Level FlightAware ADS-B (LERL / CQM)
Sat 02:58:27 AM 51.7090 -4.1564 91° East 494 568 35,000  Level FlightAware UK
Sat 02:58:33 AM 51.7314 -4.1200 91° East 523 602 35,000  Level FlightAware ADS-B (KAPA)
Sat 02:59:03 AM 51.7357 -4.0132 86° East 522 601 35,000  Level FlightAware ADS-B (EGCW)
Sat 02:59:07 AM 51.7365 -3.9886 87° East 523 602 35,000  Level FlightAware ADS-B
Sat 02:59:46 AM 51.7402 -3.8915 86° East 523 602 35,000  Level FlightAware ADS-B (EPBY / BZG)
Sat 03:00:18 AM 51.7465 -3.7125 87° East 524 603 35,000  Level FlightAware ADS-B (LERL / CQM)
Sat 03:00:28 AM 51.7479 -3.6743 87° East 523 602 35,000  Level FlightAware ADS-B (LERL / CQM)
Sat 03:00:38 AM 51.7493 -3.6332 87° East 523 602 35,000  Level FlightAware ADS-B (LERL / CQM)
Sat 03:00:43 AM 51.7497 -3.6169 88° East 523 602 35,000  Level FlightAware ADS-B
Sat 03:00:48 AM 51.7497 -3.6169 360° North 524 603 35,000  Level FlightAware ADS-B (KHUA)
Sat 03:00:59 AM 51.7518 -3.5548 87° East 524 603 35,000  Level FlightAware ADS-B (LERL / CQM)
Sat 03:01:12 AM 51.7535 -3.5004 87° East 524 603 35,000  Level FlightAware ADS-B (LERL / CQM)
Sat 03:01:23 AM 51.7547 -3.4597 87° East 524 603 35,000  Level FlightAware ADS-B (LERL / CQM)
Sat 03:01:33 AM 51.7559 -3.4192 87° East 524 603 35,000  Level FlightAware ADS-B (LERL / CQM)
Sat 03:01:35 AM 51.7563 -3.4111 86° East 525 604 35,000  Level FlightAware ADS-B
Sat 03:01:53 AM 51.7584 -3.3413 87° East 524 603 35,000  Level FlightAware ADS-B (LERL / CQM)
Sat 03:02:04 AM 51.7595 -3.3006 87° East 525 604 35,000  Level FlightAware ADS-B
Sat 03:02:14 AM 51.7609 -3.2620 87° East 523 602 35,000  Level FlightAware ADS-B (LERL / CQM)
Sat 03:02:24 AM 51.7625 -3.2203 86° East 524 603 35,000  Level FlightAware ADS-B
Sat 03:02:26 AM 51.7620 -3.2320 266° West 524 603 35,000  Level FlightAware ADS-B (KHUA)
Sat 03:02:32 AM 51.7635 -3.1939 86° East 523 602 35,000  Level FlightAware ADS-B
Sat 03:02:36 AM 51.7635 -3.1939 137° Southeast 523 602 35,000  Level FlightAware ADS-B (KHUA)
Sat 03:02:52 AM 51.7665 -3.1146 86° East 522 601 35,000  Level FlightAware ADS-B (LERL / CQM)
Sat 03:02:58 AM 51.7674 -3.0896 87° East 522 601 35,000  Level FlightAware ADS-B (LERL / CQM)
Sat 03:03:04 AM 51.7683 -3.0666 87° East 522 601 35,000  Level FlightAware ADS-B
Sat 03:03:13 AM 51.7697 -3.0296 87° East 522 601 35,000  Level FlightAware ADS-B (LERL / CQM)
Sat 03:03:36 AM 51.7729 -2.9401 87° East 523 602 35,000  Level FlightAware ADS-B
Sat 03:04:07 AM 51.7777 -2.8234 86° East 521 600 35,000  Level FlightAware ADS-B
Sat 03:04:37 AM 51.7825 -2.7084 86° East 520 598 35,000  Level FlightAware ADS-B
Sat 03:05:07 AM 51.7877 -2.5897 86° East 520 598 35,000  Level FlightAware ADS-B
Sat 03:05:38 AM 51.7923 -2.4694 86° East 519 597 35,000  Level FlightAware ADS-B
Sat 03:05:39 AM 51.7925 -2.4671 81° East 518 596 35,000  Level FlightAware ADS-B (LERL / CQM)
Sat 03:06:09 AM 51.7973 -2.3519 86° East 518 596 35,000  Level FlightAware ADS-B
Sat 03:06:11 AM 51.7977 -2.3460 84° East 518 596 35,000  Level FlightAware ADS-B (KAPA)
Sat 03:06:21 AM 51.7988 -2.3058 87° East 518 596 35,000  Level FlightAware ADS-B
Sat 03:06:29 AM 51.7983 -2.2717 91° East 517 595 35,000  Level FlightAware ADS-B
Sat 03:06:38 AM 51.7959 -2.2384 97° East 516 594 35,000  Level FlightAware ADS-B
Sat 03:06:39 AM 51.7955 -2.2346 99° East 516 594 35,000  Level FlightAware ADS-B
Sat 03:06:50 AM 51.7904 -2.1973 102° East 515 593 35,000  Level FlightAware ADS-B (EGCW)
Sat 03:07:03 AM 51.7809 -2.1479 107° East 514 592 35,000  Level FlightAware ADS-B
Sat 03:07:16 AM 51.7740 -2.1161 109° East 512 589 35,000  Level FlightAware ADS-B (KHUA)
Sat 03:07:25 AM 51.7673 -2.0856 110° East 512 589 35,000  Level FlightAware ADS-B (KHUA)
Sat 03:07:33 AM 51.7570 -2.0389 110° East 515 593 35,000  Level FlightAware ADS-B
Sat 03:07:43 AM 51.7500 -2.0061 109° East 514 592 35,000  Level FlightAware ADS-B (EGCW)
Sat 03:07:50 AM 51.7435 -1.9759 109° East 514 592 35,000  Level FlightAware ADS-B
Sat 03:07:59 AM 51.7380 -1.9450 106° East 515 593 35,000  Level FlightAware ADS-B (KAPA)
Sat 03:08:21 AM 51.7251 -1.8612 104° East 516 594 35,000  Level FlightAware ADS-B
Sat 03:08:32 AM 51.7197 -1.8221 103° East 515 593 35,000  Level FlightAware ADS-B
Sat 03:08:51 AM 51.7103 -1.7476 101° East 516 594 35,000  Level FlightAware ADS-B
Sat 03:09:05 AM 51.7047 -1.7012 101° East 515 593 35,000  Level FlightAware ADS-B (EGLC / LCY)
Sat 03:09:27 AM 51.6942 -1.6121 101° East 515 593 35,000  Level FlightAware ADS-B
Sat 03:09:41 AM 51.6939 -1.6086 98° East 515 593 35,000  Level FlightAware ADS-B
Sat 03:09:57 AM 51.6811 -1.4982 101° East 515 593 35,000  Level FlightAware ADS-B
Sat 03:10:07 AM 51.6808 -1.4963 103° East 513 590 35,000  Level FlightAware ADS-B (KHUA)
Sat 03:10:12 AM 51.6748 -1.4434 100° East 513 590 35,000  Level FlightAware ADS-B
Sat 03:10:30 AM 51.6669 -1.3766 101° East 515 593 35,000  Level FlightAware ADS-B
Sat 03:10:44 AM 51.6614 -1.3293 101° East 514 592 35,000  Level FlightAware ADS-B (EGDM)
Sat 03:11:00 AM 51.6535 -1.2628 101° East 514 592 35,000  Level FlightAware ADS-B
Sat 03:11:17 AM 51.6484 -1.2183 100° East 515 593 35,000  Level FlightAware ADS-B (KHUA)
Sat 03:11:32 AM 51.6396 -1.1450 101° East 513 590 35,000  Level FlightAware ADS-B
Sat 03:11:47 AM 51.6329 -1.0892 101° East 512 589 35,000  Level FlightAware ADS-B (EGDM)
Sat 03:12:02 AM 51.6263 -1.0323 101° East 512 589 35,000  Level FlightAware ADS-B
Sat 03:12:18 AM 51.6200 -0.9814 101° East 511 588 35,000  Level FlightAware ADS-B
Sat 03:12:34 AM 51.6118 -0.9127 101° East 511 588 35,000  Level FlightAware ADS-B
Sat 03:12:59 AM 51.6004 -0.8192 101° East 512 589 35,000  Level FlightAware ADS-B (EGDM)
Sat 03:13:04 AM 51.5979 -0.7990 101° East 512 589 35,000  Level FlightAware ADS-B
Sat 03:13:30 AM 51.5869 -0.7117 101° East 512 589 35,000  Level FlightAware ADS-B (EGDM)
Sat 03:13:35 AM 51.5835 -0.6839 101° East 512 589 35,000  Level FlightAware ADS-B
Sat 03:14:00 AM 51.5722 -0.5952 102° East 514 592 35,000  Level FlightAware ADS-B
Sat 03:14:06 AM 51.5688 -0.5694 102° East 514 592 35,000  Level FlightAware ADS-B
Sat 03:14:19 AM 51.5646 -0.5364 102° East 513 590 35,000  Level FlightAware ADS-B (KHUA)
Sat 03:14:37 AM 51.5539 -0.4546 102° East 515 593 35,000  Level FlightAware ADS-B
Sat 03:14:38 AM 51.5555 -0.4668 282° West 513 590 35,000  Level FlightAware ADS-B (KHUA)
Sat 03:15:08 AM 51.5385 -0.3365 102° East 516 594 35,000  Level FlightAware ADS-B
Sat 03:15:09 AM 51.5392 -0.3419 281° West 516 594 35,000  Level FlightAware ADS-B
Sat 03:15:39 AM 51.5234 -0.2217 102° East 516 594 35,000  Level FlightAware ADS-B
Sat 03:15:42 AM 51.5258 -0.2400 282° West 516 594 35,000  Level FlightAware ADS-B
Sat 03:15:53 AM 51.5189 -0.1878 102° East 514 592 35,000  Level FlightAware ADS-B (KHUA)
Sat 03:16:10 AM 51.5083 -0.1071 102° East 517 595 35,000  Level FlightAware ADS-B
Sat 03:16:25 AM 51.5024 -0.0630 102° East 516 594 35,000  Level FlightAware ADS-B (KHUA)
Sat 03:16:41 AM 51.4928 0.0103 102° East 518 596 35,000  Level FlightAware ADS-B
Sat 03:16:57 AM 51.4848 0.0710 102° East 519 597 35,000  Level FlightAware ADS-B (EGLC / LCY)
Sat 03:17:11 AM 51.4774 0.1255 102° East 521 600 35,000  Level FlightAware ADS-B
Sat 03:17:30 AM 51.4681 0.1955 102° East 522 601 35,000  Level FlightAware ADS-B
Sat 03:17:42 AM 51.4621 0.2406 102° East 523 602 35,000  Level FlightAware ADS-B
Sat 03:17:46 AM 51.4601 0.2550 103° East 521 600 35,000  Level FlightAware ADS-B
Sat 03:17:53 AM 51.4583 0.2686 102° East 521 600 35,000  Level FlightAware ADS-B (KHUA)
Sat 03:17:59 AM 51.4540 0.3008 102° East 521 600 35,000  Level FlightAware ADS-B
Sat 03:18:05 AM 51.4505 0.3271 102° East 521 600 35,000  Level FlightAware ADS-B
Sat 03:18:14 AM 51.4460 0.3611 102° East 523 602 35,000  Level FlightAware ADS-B
Sat 03:18:36 AM 51.4349 0.4424 102° East 523 602 35,000  Level FlightAware ADS-B
Sat 03:18:46 AM 51.4297 0.4815 102° East 523 602 35,000  Level FlightAware ADS-B
Sat 03:19:12 AM 51.4167 0.5754 102° East 522 601 35,000  Level FlightAware ADS-B
Sat 03:19:16 AM 51.4138 0.5962 103° East 522 601 35,000  Level FlightAware ADS-B
Sat 03:19:42 AM 51.4001 0.6958 102° East 522 601 35,000  Level FlightAware ADS-B
Sat 03:19:46 AM 51.3982 0.7094 103° East 522 601 35,000  Level FlightAware ADS-B
Sat 03:20:13 AM 51.3845 0.8079 102° East 524 603 35,000  Level FlightAware ADS-B
Sat 03:20:17 AM 51.3819 0.8270 102° East 524 603 35,000  Level FlightAware ADS-B
Sat 03:20:51 AM 51.3640 0.9545 103° East 524 603 35,000  Level FlightAware ADS-B
Sat 03:20:52 AM 51.3640 0.9545 360° North 524 603 35,000  Level FlightAware ADS-B (ZBAA / PEK)
Sat 03:21:22 AM 51.3485 1.0635 103° East 525 604 35,000  Level FlightAware ADS-B (ZBAA / PEK)
Sat 03:21:23 AM 51.3469 1.0746 103° East 525 604 35,000  Level FlightAware ADS-B
Sat 03:22:01 AM 51.3267 1.2172 103° East 526 605 35,000  Level FlightAware ADS-B
Sat 03:22:33 AM 51.3091 1.3387 103° East 528 608 35,000  Level FlightAware ADS-B
Sat 03:23:06 AM 51.2912 1.4620 103° East 527 606 35,000  Level FlightAware ADS-B
Sat 03:23:37 AM 51.2742 1.5801 103° East 530 610 35,000  Level FlightAware ADS-B
Sat 03:24:08 AM 51.2568 1.7020 103° East 531 611 35,000  Level FlightAware ADS-B
Sat 03:24:38 AM 51.2414 1.8105 103° East 531 611 35,000  Level FlightAware ADS-B
Sat 03:25:10 AM 51.2246 1.9301 103° East 531 611 35,000  Level FlightAware ADS-B
Sat 03:25:41 AM 51.2070 2.0534 103° East 533 613 35,000  Level FlightAware ADS-B
Sat 03:25:51 AM 51.2017 2.0933 102° East 532 612 35,000  Level FlightAware ADS-B
Sat 03:26:21 AM 51.1868 2.2076 102° East 534 615 35,000  Level FlightAware ADS-B
Sat 03:26:29 AM 51.1826 2.2388 102° East 533 613 35,000  Level FlightAware ADS-B
Sat 03:27:17 AM 51.1572 2.4268 102° East 536 617 35,000  Level FlightAware ADS-B
Sat 03:27:57 AM 51.1361 2.5804 102° East 539 620 35,000  Level FlightAware ADS-B
Sat 03:28:37 AM 51.1150 2.7300 102° East 541 623 35,000  Level FlightAware ADS-B
Sat 03:28:55 AM 51.0876 2.7826 102° East 494 568 35,000  Level FlightAware UK
Sat 03:29:13 AM 51.1023 2.8181 102° East 544 626 35,000  Level FlightAware ADS-B
Sat 03:29:25 AM 51.0710 2.8996 102° East 494 568 35,000 714 Level FlightAware UK
Sat 03:29:55 AM 51.0542 3.0166 102° East 498 573 35,500 1,100 Climbing FlightAware UK
Sat 03:30:25 AM 51.0374 3.1335 103° East 500 575 36,100 1,200 Climbing FlightAware UK
Sat 03:30:30 AM 51.0510 3.1670 103° East 540 621 36,200 1,263 Climbing FlightAware ADS-B
Sat 03:31:03 AM 51.0320 3.2970 103° East 537 618 36,900 873 Climbing FlightAware ADS-B
Sat 03:31:25 AM 51.0033 3.3657 103° East 498 573 37,000 154 Climbing FlightAware UK
Sat 03:31:42 AM 51.0090 3.4500 103° East 536 617 37,000  Level FlightAware ADS-B
Sat 03:32:13 AM 50.9757 3.5498 103° East 494 568 37,000  Level FlightAware UK
Sat 03:32:43 AM 50.9581 3.6642 103° East 492 566 37,000  Level FlightAware UK
Sat 03:32:47 AM 50.9710 3.6980 103° East 536 617 37,000  Level FlightAware ADS-B
Sat 03:33:13 AM 50.9408 3.7785 103° East 490 564 37,000  Level FlightAware UK
Sat 03:33:23 AM 50.9510 3.8270 104° East 535 616 37,000  Level FlightAware ADS-B
Sat 03:34:22 AM 50.9160 4.0530 104° East 537 618 37,000  Level FlightAware ADS-B
Sat 03:34:58 AM 50.8950 4.1920 104° East 539 620 37,000  Level FlightAware ADS-B
Sat 03:35:19 AM 50.8662 4.2602 104° East 498 573 37,000  Level FlightAware UK
Sat 03:35:31 AM 50.8740 4.3220 104° East 540 621 37,000  Level FlightAware ADS-B
Sat 03:35:50 AM 50.8483 4.3766 104° East 498 573 37,000  Level FlightAware UK
Sat 03:36:08 AM 50.8520 4.4600 104° East 538 619 37,000  Level FlightAware ADS-B
Sat 03:36:20 AM 50.8297 4.4915 104° East 496 571 37,000  Level FlightAware UK
Sat 03:36:41 AM 50.8310 4.5900 104° East 535 616 37,000  Level FlightAware ADS-B
Sat 03:36:50 AM 50.8119 4.6064 104° East 496 571 37,000  Level FlightAware UK
Sat 03:37:20 AM 50.7942 4.7211 104° East 496 571 37,000  Level FlightAware UK
Sat 03:37:20 AM 50.8070 4.7370 104° East 534 615 37,000  Level FlightAware ADS-B
Sat 03:38:02 AM 50.7701 4.8818 104° East 496 571 37,000  Level FlightAware UK
Sat 03:38:20 AM 50.7710 4.9590 104° East 531 611 37,000  Level FlightAware ADS-B
Sat 03:38:57 AM 50.7490 5.0970 104° East 529 609 37,000  Level FlightAware ADS-B
Sat 03:39:30 AM 50.7290 5.2190 104° East 528 608 37,000  Level FlightAware ADS-B
Sat 03:40:33 AM 50.6900 5.4490 105° East 527 606 37,000  Level FlightAware ADS-B
Sat 03:41:07 AM 50.6670 5.5830 105° East 527 606 37,000  Level FlightAware ADS-B
Sat 03:42:10 AM 50.6277 5.8187 105° East 529 609 37,000  Level FlightAware ADS-B
Sat 03:42:50 AM 50.6022 5.9665 105° East 531 611 37,000  Level FlightAware ADS-B
Sat 03:43:21 AM 50.5825 6.0797 105° East 532 612 37,000  Level FlightAware ADS-B
Sat 03:43:29 AM 50.5769 6.1114 105° East 532 612 37,000  Level FlightAware ADS-B
Sat 03:43:39 AM 50.5742 6.1270 105° East 532 612 37,000  Level FlightAware ADS-B (EDKL)
Sat 03:44:14 AM 50.5484 6.2727 106° East 535 616 37,000  Level FlightAware ADS-B
Sat 03:44:52 AM 50.5217 6.4236 105° East 537 618 37,000  Level FlightAware ADS-B
Sat 03:45:23 AM 50.5012 6.5405 105° East 539 620 37,000  Level FlightAware ADS-B
Sat 03:46:03 AM 50.4748 6.6901 105° East 542 624 37,000  Level FlightAware ADS-B
Sat 03:46:44 AM 50.4574 6.8478 100° East 548 631 37,000  Level FlightAware ADS-B
Sat 03:47:26 AM 50.4417 7.0061 99° East 547 629 37,000  Level FlightAware ADS-B
Sat 03:48:06 AM 50.4280 7.1357 99° East 545 627 37,000  Level FlightAware ADS-B
Sat 03:48:36 AM 50.4109 7.2868 100° East 543 625 37,000  Level FlightAware ADS-B
Sat 03:49:17 AM 50.3922 7.4464 100° East 541 623 37,000  Level FlightAware ADS-B
Sat 03:50:19 AM 50.3640 7.6790 122° Southeast 534 615 37,000  Level FlightAware ADS-B
Sat 03:51:00 AM 50.2582 7.7835 122° Southeast  Level Estimated
Sat 03:51:06 AM 50.3440 7.8540 100° East 531 611 37,000  Level FlightAware ADS-B
Sat 03:51:36 AM 50.3310 7.9680 100° East 530 610 37,000  Level FlightAware ADS-B
Sat 03:52:09 AM 50.3170 8.0930 100° East 529 609 37,000  Level FlightAware ADS-B
Sat 03:52:41 AM 50.3050 8.2000 100° East 529 609 37,000  Level FlightAware ADS-B
Sat 03:53:17 AM 50.2870 8.3530 100° East 528 608 37,000  Level FlightAware ADS-B
Sat 03:53:46 AM 50.2750 8.4580 100° East 530 610 37,000  Level FlightAware ADS-B
Sat 03:54:31 AM 50.2560 8.6230 100° East 534 615 37,000  Level FlightAware ADS-B
Sat 03:55:06 AM 50.2410 8.7430 101° East 534 615 37,000  Level FlightAware ADS-B
Sat 03:55:42 AM 50.2220 8.9000 101° East 532 612 37,000  Level FlightAware ADS-B
Sat 03:56:25 AM 50.2030 9.0580 101° East 531 611 37,000  Level FlightAware ADS-B
Sat 03:57:11 AM 50.1810 9.2330 101° East 531 611 37,000  Level FlightAware ADS-B
Sat 03:58:13 AM 50.1520 9.4630 101° East 534 615 37,000  Level FlightAware ADS-B
Sat 03:58:49 AM 50.1350 9.5980 101° East 533 613 37,000  Level FlightAware ADS-B
Sat 03:59:28 AM 50.1180 9.7310 101° East 533 613 37,000  Level FlightAware ADS-B
Sat 04:00:03 AM 50.0990 9.8780 101° East 531 611 37,000  Level FlightAware ADS-B
Sat 04:00:35 AM 50.0840 9.9930 101° East 530 610 37,000  Level FlightAware ADS-B
Sat 04:01:09 AM 50.0660 10.1280 102° East 530 610 37,000  Level FlightAware ADS-B
Sat 04:01:42 AM 50.0510 10.2430 101° East 529 609 37,000  Level FlightAware ADS-B
Sat 04:02:18 AM 50.0320 10.3860 102° East 529 609 37,000  Level FlightAware ADS-B
Sat 04:02:52 AM 50.0150 10.5090 102° East 528 608 37,000  Level FlightAware ADS-B
Sat 04:03:36 AM 49.9930 10.6690 102° East 528 608 37,000  Level FlightAware ADS-B
Sat 04:04:07 AM 49.9770 10.7870 102° East 528 608 37,000  Level FlightAware ADS-B
Sat 04:05:00 AM 49.9500 10.9790 102° East 531 611 37,000  Level FlightAware ADS-B
Sat 04:05:46 AM 49.9260 11.1480 102° East 531 611 37,000  Level FlightAware ADS-B
Sat 04:06:15 AM 49.9100 11.2590 103° East 529 609 37,000  Level FlightAware ADS-B
Sat 04:06:51 AM 49.8920 11.3870 102° East 531 611 37,000  Level FlightAware ADS-B
Sat 04:07:48 AM 49.8590 11.6070 103° East 529 609 37,000  Level FlightAware ADS-B
Sat 04:08:19 AM 49.8430 11.7210 102° East 529 609 37,000  Level FlightAware ADS-B
Sat 04:08:49 AM 49.8290 11.8115 103° East 528 608 37,000  Level FlightAware ADS-B
Sat 04:09:24 AM 49.8059 11.9643 103° East 528 608 37,000  Level FlightAware ADS-B
Sat 04:09:57 AM 49.7873 12.0852 103° East 527 606 37,000  Level FlightAware ADS-B
Sat 04:10:32 AM 49.7681 12.2105 103° East 527 606 37,000  Level FlightAware ADS-B
Sat 04:11:03 AM 49.7525 12.3113 103° East 527 606 37,000  Level FlightAware ADS-B
Sat 04:11:44 AM 49.7272 12.4749 103° East 527 606 37,000  Level FlightAware ADS-B
Sat 04:12:15 AM 49.7128 12.5734 103° East 529 609 37,000  Level FlightAware ADS-B
Sat 04:12:45 AM 49.6966 12.6911 102° East 528 608 37,000  Level FlightAware ADS-B
Sat 04:13:25 AM 49.6718 12.8451 104° East 527 606 37,000  Level FlightAware ADS-B
Sat 04:13:55 AM 49.6522 12.9532 106° East 524 603 37,000  Level FlightAware ADS-B
Sat 04:14:31 AM 49.6297 13.0730 106° East 523 602 37,000  Level FlightAware ADS-B
Sat 04:15:11 AM 49.6019 13.2204 106° East 521 600 37,000  Level FlightAware ADS-B
Sat 04:15:47 AM 49.5802 13.3388 106° East 521 600 37,000  Level FlightAware ADS-B
Sat 04:16:17 AM 49.5597 13.4493 106° East 521 600 37,000  Level FlightAware ADS-B
Sat 04:16:48 AM 49.5396 13.5575 106° East 521 600 37,000  Level FlightAware ADS-B
Sat 04:17:24 AM 49.5132 13.6985 106° East 520 598 37,000  Level FlightAware ADS-B
Sat 04:18:05 AM 49.4860 13.8431 106° East 519 597 37,000  Level FlightAware ADS-B
Sat 04:18:52 AM 49.4542 14.0108 106° East 519 597 37,000  Level FlightAware ADS-B
Sat 04:19:22 AM 49.4337 14.1174 106° East 518 596 37,000  Level FlightAware ADS-B
Sat 04:20:06 AM 49.4152 14.2126 107° East 519 597 37,000  Level FlightAware ADS-B
Sat 04:20:36 AM 49.3830 14.3760 107° East 519 597 37,000  Level FlightAware ADS-B
Sat 04:21:09 AM 49.3604 14.4914 107° East 520 598 37,000  Level FlightAware ADS-B
Sat 04:21:43 AM 49.3378 14.6046 107° East 520 598 37,000  Level FlightAware ADS-B
Sat 04:22:21 AM 49.3096 14.7462 107° East 520 598 37,000  Level FlightAware ADS-B
Sat 04:23:05 AM 49.2787 14.8995 107° East 520 598 37,000  Level FlightAware ADS-B
Sat 04:24:02 AM 49.2382 15.1027 107° East 521 600 37,000  Level FlightAware ADS-B
Sat 04:24:34 AM 49.2159 15.2127 107° East 521 600 37,000  Level FlightAware ADS-B
Sat 04:25:24 AM 49.1800 15.3874 107° East 521 600 37,000  Level FlightAware ADS-B
Sat 04:26:03 AM 49.1509 15.5272 108° East 521 600 37,000  Level FlightAware ADS-B
Sat 04:26:51 AM 49.1170 15.6890 108° East 521 600 37,000  Level FlightAware ADS-B
Sat 04:27:56 AM 49.0690 15.9150 108° East 521 600 37,000  Level FlightAware ADS-B
Sat 04:28:35 AM 49.0410 16.0450 108° East 521 600 37,000  Level FlightAware ADS-B
Sat 04:29:09 AM 49.0140 16.1690 108° East 520 598 37,000  Level FlightAware ADS-B
Sat 04:29:52 AM 48.9810 16.3160 109° East 519 597 37,000  Level FlightAware ADS-B
Sat 04:30:25 AM 48.9560 16.4310 108° East 519 597 37,000  Level FlightAware ADS-B
Sat 04:30:57 AM 48.9300 16.5480 109° East 521 600 37,000  Level FlightAware ADS-B
Sat 04:32:05 AM 48.8790 16.7770 109° East 520 598 37,000  Level FlightAware ADS-B
Sat 04:32:42 AM 48.8500 16.9070 109° East 520 598 37,000  Level FlightAware ADS-B
Sat 04:33:19 AM 48.8220 17.0320 109° East 518 596 37,000  Level FlightAware ADS-B
Sat 04:33:58 AM 48.7850 17.1610 113° Southeast 516 594 37,000  Level FlightAware ADS-B
Sat 04:34:36 AM 48.7420 17.2840 118° Southeast 515 593 37,000  Level FlightAware ADS-B
Sat 04:35:15 AM 48.6980 17.4050 119° Southeast 516 594 37,000  Level FlightAware ADS-B
Sat 04:36:05 AM 48.6378 17.5588 121° Southeast 513 590 37,000  Level FlightAware ADS-B (LHBP / BUD)
Sat 04:36:35 AM 48.5871 17.6488 130° Southeast 512 589 37,000  Level FlightAware ADS-B (LHBP / BUD)
Sat 04:37:06 AM 48.5371 17.7276 134° Southeast 511 588 37,000  Level FlightAware ADS-B (LHBP / BUD)
Sat 04:37:36 AM 48.4880 17.8036 134° Southeast 511 588 37,000  Level FlightAware ADS-B (LHBP / BUD)
Sat 04:38:16 AM 48.4215 17.9058 134° Southeast 511 588 37,000  Level FlightAware ADS-B (LHBP / BUD)
Sat 04:38:46 AM 48.3749 17.9780 134° Southeast 511 588 37,000  Level FlightAware ADS-B (LHBP / BUD)
Sat 04:39:23 AM 48.3130 18.0700 135° Southeast 509 586 37,000  Level FlightAware ADS-B
Sat 04:39:59 AM 48.2482 18.1608 137° Southeast 509 586 37,000  Level FlightAware ADS-B (LHBP / BUD)
Sat 04:41:15 AM 48.1251 18.3336 137° Southeast 509 586 37,000  Level FlightAware ADS-B (LHBP / BUD)
Sat 04:41:45 AM 48.0672 18.4135 137° Southeast 509 586 37,000  Level FlightAware ADS-B (LHBP / BUD)
Sat 04:42:16 AM 48.0129 18.4879 138° Southeast 509 586 37,000  Level FlightAware ADS-B (LHBP / BUD)
Sat 04:43:05 AM 47.9275 18.6079 137° Southeast 513 590 37,000  Level FlightAware ADS-B (LHBP / BUD)
Sat 04:43:36 AM 47.8808 18.6816 133° Southeast 511 588 37,000  Level FlightAware ADS-B (LHBP / BUD)
Sat 04:44:16 AM 47.8147 18.7855 133° Southeast 512 589 37,000  Level FlightAware ADS-B (LHBP / BUD)
Sat 04:44:54 AM 47.7517 18.8847 133° Southeast 513 590 37,000  Level FlightAware ADS-B (LHBP / BUD)
Sat 04:45:35 AM 47.6901 18.9817 133° Southeast 513 590 37,000  Level FlightAware ADS-B (LHBP / BUD)
Sat 04:46:05 AM 47.6350 19.0688 133° Southeast 513 590 37,000  Level FlightAware ADS-B (LHBP / BUD)
Sat 04:46:35 AM 47.5911 19.1375 133° Southeast 513 590 37,000  Level FlightAware ADS-B (LHBP / BUD)
Sat 04:47:05 AM 47.5379 19.2206 133° Southeast 513 590 37,000  Level FlightAware ADS-B (LHBP / BUD)
Sat 04:47:35 AM 47.4890 19.2970 133° Southeast 513 590 37,000  Level FlightAware ADS-B (LHBP / BUD)
Sat 04:48:05 AM 47.4404 19.3727 133° Southeast 513 590 37,000  Level FlightAware ADS-B (LHBP / BUD)
Sat 04:48:36 AM 47.3917 19.4485 133° Southeast 511 588 37,000  Level FlightAware ADS-B (LHBP / BUD)
Sat 04:49:06 AM 47.3439 19.5226 134° Southeast 511 588 37,000  Level FlightAware ADS-B (LHBP / BUD)
Sat 04:49:36 AM 47.2940 19.5998 134° Southeast 511 588 37,000  Level FlightAware ADS-B (LHBP / BUD)
Sat 04:50:13 AM 47.2326 19.6946 134° Southeast 511 588 37,000  Level FlightAware ADS-B (LHBP / BUD)
Sat 04:50:45 AM 47.1842 19.7692 134° Southeast 510 587 37,000  Level FlightAware ADS-B (LHBP / BUD)
Sat 04:51:16 AM 47.1336 19.8465 134° Southeast 511 588 37,000  Level FlightAware ADS-B (LHBP / BUD)
Sat 04:51:56 AM 47.0639 19.9531 134° Southeast 512 589 37,000  Level FlightAware ADS-B (LHBP / BUD)
Sat 04:52:26 AM 47.0145 20.0281 134° Southeast 513 590 37,000  Level FlightAware ADS-B (LHBP / BUD)
Sat 04:53:56 AM 46.8729 20.2416 138° Southeast 513 590 37,000  Level FlightAware ADS-B (LHBP / BUD)
Sat 04:54:00 AM 46.8434 20.2560 138° Southeast  Level Estimated
Sat 04:55:28 AM 46.7160 20.4760 138° Southeast 509 586 37,000  Level FlightAware ADS-B
Sat 04:55:53 AM 46.6760 20.5350 135° Southeast 508 585 37,000  Level FlightAware ADS-B
Sat 04:56:00 AM 46.6464 20.5401 138° Southeast  Level Estimated
Sat 04:56:32 AM 46.6110 20.6310 135° Southeast 507 583 37,000  Level FlightAware ADS-B
Sat 04:57:04 AM 46.5550 20.7140 134° Southeast 506 582 37,000  Level FlightAware ADS-B
Sat 04:57:38 AM 46.5050 20.7870 135° Southeast 506 582 37,000  Level FlightAware ADS-B
Sat 04:59:00 AM 46.3650 20.9920 135° Southeast 504 580 37,000  Level FlightAware ADS-B
Sat 04:59:30 AM 46.3150 21.0650 135° Southeast 504 580 37,000  Level FlightAware ADS-B
Sat 05:00:01 AM 46.2660 21.1330 136° Southeast 506 582 37,000  Level FlightAware ADS-B
Sat 05:00:42 AM 46.1900 21.2240 140° Southeast 505 581 37,000  Level FlightAware ADS-B
Sat 05:01:55 AM 46.0590 21.3760 141° Southeast 503 579 37,000  Level FlightAware ADS-B
Sat 05:02:34 AM 45.9880 21.4580 141° Southeast 502 578 37,000  Level FlightAware ADS-B
Sat 05:03:14 AM 45.9150 21.5420 141° Southeast 502 578 37,000  Level FlightAware ADS-B
Sat 05:03:59 AM 45.8330 21.6360 141° Southeast 503 579 37,000  Level FlightAware ADS-B
Sat 05:04:29 AM 45.7800 21.6960 142° Southeast 504 580 37,000  Level FlightAware ADS-B
Sat 05:05:12 AM 45.7070 21.7790 142° Southeast 504 580 37,000  Level FlightAware ADS-B
Sat 05:05:52 AM 45.6340 21.8610 142° Southeast 504 580 37,000  Level FlightAware ADS-B
Sat 05:06:12 AM 45.5970 21.9040 141° Southeast 505 581 37,000  Level FlightAware ADS-B
Sat 05:07:17 AM 45.4760 22.0400 142° Southeast 504 580 37,000  Level FlightAware ADS-B
Sat 05:08:17 AM 45.3620 22.1690 141° Southeast 504 580 37,000  Level FlightAware ADS-B
Sat 05:08:54 AM 45.3030 22.2350 142° Southeast 504 580 37,000  Level FlightAware ADS-B
Sat 05:09:33 AM 45.2330 22.3120 142° Southeast 504 580 37,000  Level FlightAware ADS-B
Sat 05:10:35 AM 45.1160 22.4410 142° Southeast 503 579 37,000  Level FlightAware ADS-B
Sat 05:11:03 AM 45.0640 22.4990 142° Southeast 503 579 37,000  Level FlightAware ADS-B
Sat 05:11:54 AM 44.9730 22.5990 142° Southeast 502 578 37,000  Level FlightAware ADS-B
Sat 05:12:35 AM 44.8930 22.6870 142° Southeast 501 577 37,000  Level FlightAware ADS-B
Sat 05:13:41 AM 44.7740 22.8160 142° Southeast 500 575 37,000  Level FlightAware ADS-B
Sat 05:14:18 AM 44.7070 22.8900 142° Southeast 499 574 37,000  Level FlightAware ADS-B
Sat 05:14:54 AM 44.6410 22.9610 143° Southeast 499 574 37,000  Level FlightAware ADS-B
Sat 05:15:33 AM 44.5660 23.0380 144° Southeast 498 573 37,000  Level FlightAware ADS-B
Sat 05:16:18 AM 44.4900 23.1150 144° Southeast 497 572 37,000  Level FlightAware ADS-B
Sat 05:16:59 AM 44.4120 23.1940 144° Southeast 496 571 37,000  Level FlightAware ADS-B
Sat 05:17:35 AM 44.3430 23.2640 144° Southeast 495 570 37,000  Level FlightAware ADS-B
Sat 05:18:09 AM 44.2840 23.3250 143° Southeast 495 570 37,000  Level FlightAware ADS-B
Sat 05:18:52 AM 44.1950 23.4150 144° Southeast 495 570 37,000  Level FlightAware ADS-B
Sat 05:19:42 AM 44.1040 23.5070 144° Southeast 496 571 37,000  Level FlightAware ADS-B
Sat 05:20:28 AM 44.0170 23.5960 144° Southeast 497 572 37,000  Level FlightAware ADS-B
Sat 05:21:08 AM 43.9440 23.6680 145° Southeast 496 571 37,000  Level FlightAware ADS-B
Sat 05:22:18 AM 43.8120 23.7900 146° Southeast 507 583 37,000  Level FlightAware ADS-B
Sat 05:22:53 AM 43.7270 23.8230 164° South 514 592 37,000  Level FlightAware ADS-B
Sat 05:23:32 AM 43.6350 23.8440 171° South 518 596 37,000  Level FlightAware ADS-B
Sat 05:24:17 AM 43.5280 23.8580 175° South 519 597 37,000  Level FlightAware ADS-B
Sat 05:24:57 AM 43.4350 23.8700 175° South 519 597 37,000  Level FlightAware ADS-B
Sat 05:25:40 AM 43.3350 23.8840 174° South 519 597 37,000  Level FlightAware ADS-B
Sat 05:26:14 AM 43.2580 23.8950 174° South 519 597 37,000  Level FlightAware ADS-B
Sat 05:26:57 AM 43.1510 23.9110 174° South 519 597 37,000  Level FlightAware ADS-B
Sat 05:27:30 AM 43.0730 23.9220 174° South 520 598 37,000  Level FlightAware ADS-B
Sat 05:28:07 AM 42.9740 23.9370 174° South 520 598 37,000  Level FlightAware ADS-B
Sat 05:28:47 AM 42.8810 23.9510 174° South 520 598 37,000  Level FlightAware ADS-B
Sat 05:29:32 AM 42.7720 23.9670 174° South 519 597 37,000  Level FlightAware ADS-B
Sat 05:30:07 AM 42.6880 23.9790 174° South 520 598 37,000  Level FlightAware ADS-B
Sat 05:31:02 AM 42.5560 23.9970 174° South 520 598 37,000  Level FlightAware ADS-B
Sat 05:31:42 AM 42.4590 24.0110 174° South 519 597 37,000  Level FlightAware ADS-B
Sat 05:32:32 AM 42.3410 24.0280 174° South 519 597 37,000  Level FlightAware ADS-B
Sat 05:33:12 AM 42.2440 24.0420 174° South 519 597 37,000  Level FlightAware ADS-B
Sat 05:33:52 AM 42.1490 24.0560 174° South 518 596 37,000  Level FlightAware ADS-B
Sat 05:34:32 AM 42.0600 24.0680 174° South 518 596 37,000  Level FlightAware ADS-B
Sat 05:35:27 AM 41.9230 24.0880 174° South 517 595 37,000  Level FlightAware ADS-B
Sat 05:35:57 AM 41.8500 24.0980 174° South 517 595 37,000  Level FlightAware ADS-B
Sat 05:36:32 AM 41.7670 24.1100 174° South 516 594 37,000  Level FlightAware ADS-B
Sat 05:37:47 AM 41.5980 24.1370 173° South 508 585 37,000  Level FlightAware ADS-B
Sat 05:38:22 AM 41.5210 24.1820 156° South 489 563 37,000  Level FlightAware ADS-B
Sat 05:38:52 AM 41.4600 24.2210 154° Southeast 502 578 37,000  Level FlightAware ADS-B
Sat 05:39:41 AM 41.3530 24.2740 160° South 502 578 37,000  Level FlightAware ADS-B
Sat 05:40:32 AM 41.2460 24.3320 158° South 500 575 37,000  Level FlightAware ADS-B
Sat 05:41:15 AM 41.1450 24.3890 157° South 498 573 37,000  Level FlightAware ADS-B
Sat 05:42:12 AM 41.0280 24.4560 157° South 495 570 37,000  Level FlightAware ADS-B
Sat 05:42:46 AM 40.9590 24.4950 157° South 494 568 37,000  Level FlightAware ADS-B
Sat 05:43:52 AM 40.8200 24.5740 157° South 493 567 37,000  Level FlightAware ADS-B
Sat 05:44:37 AM 40.7300 24.6240 157° South 491 565 37,000  Level FlightAware ADS-B
Sat 05:45:19 AM 40.6380 24.6750 157° South 490 564 37,000  Level FlightAware ADS-B
Sat 05:46:02 AM 40.5460 24.7260 157° South 489 563 37,000  Level FlightAware ADS-B
Sat 05:46:37 AM 40.4770 24.7640 157° South 490 564 37,000  Level FlightAware ADS-B
Sat 05:47:27 AM 40.3780 24.8190 157° South 489 563 37,000  Level FlightAware ADS-B
Sat 05:48:02 AM 40.2930 24.8660 157° South 490 564 37,000  Level FlightAware ADS-B
Sat 05:48:42 AM 40.2100 24.9110 158° South 490 564 37,000  Level FlightAware ADS-B
Sat 05:49:17 AM 40.1440 24.9470 157° South 490 564 37,000  Level FlightAware ADS-B
Sat 05:50:37 AM 39.9750 25.0390 157° South 490 564 37,000  Level FlightAware ADS-B
Sat 05:51:29 AM 39.8590 25.1010 158° South 490 564 37,000  Level FlightAware ADS-B
Sat 05:52:12 AM 39.7720 25.1480 157° South 491 565 37,000  Level FlightAware ADS-B
Sat 05:52:44 AM 39.7010 25.1860 158° South 491 565 37,000  Level FlightAware ADS-B
Sat 05:53:29 AM 39.6070 25.2370 157° South 491 565 37,000  Level FlightAware ADS-B
Sat 05:53:57 AM 39.5460 25.2690 158° South 491 565 37,000  Level FlightAware ADS-B
Sat 05:54:27 AM 39.4850 25.3010 158° South 491 565 37,000  Level FlightAware ADS-B
Sat 05:55:21 AM 39.3740 25.3600 158° South 490 564 37,000  Level FlightAware ADS-B
Sat 05:56:02 AM 39.2930 25.4030 158° South 490 564 37,000  Level FlightAware ADS-B
Sat 05:57:03 AM 39.1570 25.4740 158° South 489 563 37,000  Level FlightAware ADS-B
Sat 05:57:39 AM 39.0820 25.5130 158° South 490 564 37,000  Level FlightAware ADS-B
Sat 05:58:23 AM 38.9870 25.5630 158° South 490 564 37,000  Level FlightAware ADS-B
Sat 05:59:03 AM 38.9040 25.6070 158° South 490 564 37,000  Level FlightAware ADS-B
Sat 05:59:31 AM 38.8450 25.6360 159° South 489 563 37,000  Level FlightAware ADS-B
Sat 06:00:18 AM 38.7460 25.6870 158° South 489 563 37,000  Level FlightAware ADS-B
Sat 06:00:52 AM 38.6790 25.7220 158° South 491 565 37,000  Level FlightAware ADS-B
Sat 06:01:36 AM 38.5810 25.7720 158° South 493 567 37,000  Level FlightAware ADS-B
Sat 06:02:13 AM 38.5090 25.8090 158° South 494 568 37,000  Level FlightAware ADS-B
Sat 06:02:48 AM 38.4330 25.8470 159° South 495 570 37,000  Level FlightAware ADS-B
Sat 06:03:20 AM 38.3610 25.8840 158° South 497 572 37,000  Level FlightAware ADS-B
Sat 06:03:58 AM 38.2790 25.9250 159° South 499 574 37,000  Level FlightAware ADS-B
Sat 06:04:38 AM 38.1920 25.9660 160° South 500 575 37,000  Level FlightAware ADS-B
Sat 06:05:18 AM 38.1030 26.0050 161° South 502 578 37,000  Level FlightAware ADS-B
Sat 06:06:07 AM 37.9970 26.0530 160° South 502 578 37,000  Level FlightAware ADS-B
Sat 06:06:44 AM 37.9160 26.0900 160° South 502 578 37,000  Level FlightAware ADS-B
Sat 06:07:20 AM 37.8370 26.1260 160° South 502 578 37,000  Level FlightAware ADS-B
Sat 06:07:58 AM 37.7550 26.1640 160° South 502 578 37,000  Level FlightAware ADS-B
Sat 06:08:36 AM 37.6700 26.2020 161° South 501 577 37,000  Level FlightAware ADS-B
Sat 06:09:08 AM 37.5990 26.2330 161° South 500 575 37,000  Level FlightAware ADS-B
Sat 06:10:05 AM 37.4770 26.2870 161° South 498 573 37,000  Level FlightAware ADS-B
Sat 06:10:50 AM 37.3800 26.3300 161° South 497 572 37,000  Level FlightAware ADS-B
Sat 06:11:30 AM 37.2940 26.3680 161° South 497 572 37,000  Level FlightAware ADS-B
Sat 06:12:27 AM 37.1700 26.4220 161° South 496 571 37,000  Level FlightAware ADS-B
Sat 06:13:07 AM 37.0830 26.4610 160° South 496 571 37,000  Level FlightAware ADS-B
Sat 06:13:40 AM 37.0090 26.4930 161° South 495 570 37,000  Level FlightAware ADS-B
Sat 06:14:36 AM 36.8890 26.5450 161° South 493 567 37,000  Level FlightAware ADS-B
Sat 06:15:20 AM 36.7920 26.5870 161° South 491 565 37,000  Level FlightAware ADS-B
Sat 06:15:56 AM 36.7160 26.6200 161° South 489 563 37,000  Level FlightAware ADS-B
Sat 06:16:40 AM 36.6230 26.6610 161° South 488 562 37,000  Level FlightAware ADS-B
Sat 06:17:44 AM 36.4840 26.7210 161° South 488 562 37,000  Level FlightAware ADS-B
Sat 06:18:26 AM 36.3970 26.7620 159° South 487 560 37,000  Level FlightAware ADS-B
Sat 06:19:10 AM 36.3310 26.8510 133° Southeast 484 557 37,000  Level FlightAware ADS-B
Sat 06:19:46 AM 36.2950 26.9380 117° Southeast 485 558 37,000  Level FlightAware ADS-B
Sat 06:20:11 AM 36.2740 26.9910 116° Southeast 485 558 37,000  Level FlightAware ADS-B
Sat 06:20:53 AM 36.2260 27.1040 118° Southeast 487 560 37,000  Level FlightAware ADS-B
Sat 06:21:14 AM 36.2050 27.1560 117° Southeast 488 562 37,000  Level FlightAware ADS-B
Sat 06:22:02 AM 36.1540 27.2780 117° Southeast 489 563 37,000  Level FlightAware ADS-B
Sat 06:22:50 AM 36.1050 27.3960 117° Southeast 490 564 37,000  Level FlightAware ADS-B
Sat 06:23:18 AM 36.0750 27.4670 118° Southeast 489 563 37,000  Level FlightAware ADS-B
Sat 06:23:54 AM 36.0380 27.5560 117° Southeast 489 563 37,000  Level FlightAware ADS-B
Sat 06:24:30 AM 36.0000 27.6450 118° Southeast 489 563 37,000  Level FlightAware ADS-B
Sat 06:25:11 AM 35.9570 27.7380 120° Southeast 490 564 37,000  Level FlightAware ADS-B
Sat 06:25:46 AM 35.9080 27.8240 125° Southeast 490 564 37,000  Level FlightAware ADS-B
Sat 06:26:18 AM 35.8650 27.8970 126° Southeast 489 563 37,000  Level FlightAware ADS-B
Sat 06:27:06 AM 35.8010 28.0060 126° Southeast 490 564 37,000  Level FlightAware ADS-B
Sat 06:27:58 AM 35.7320 28.1240 126° Southeast 490 564 37,000  Level FlightAware ADS-B
Sat 06:28:34 AM 35.6840 28.2060 126° Southeast 492 566 37,000  Level FlightAware ADS-B
Sat 06:29:19 AM 35.6240 28.3090 126° Southeast 492 566 37,000  Level FlightAware ADS-B
Sat 06:30:01 AM 35.5680 28.4030 126° Southeast 493 567 37,000  Level FlightAware ADS-B
Sat 06:30:45 AM 35.5080 28.5020 127° Southeast 493 567 37,000  Level FlightAware ADS-B
Sat 06:31:29 AM 35.4500 28.6000 126° Southeast 493 567 37,000  Level FlightAware ADS-B
Sat 06:32:15 AM 35.3860 28.7070 126° Southeast 493 567 37,000  Level FlightAware ADS-B
Sat 06:32:55 AM 35.3320 28.7970 126° Southeast 494 568 37,000  Level FlightAware ADS-B
Sat 06:33:29 AM 35.2870 28.8720 126° Southeast 494 568 37,000  Level FlightAware ADS-B
Sat 06:34:05 AM 35.2380 28.9550 126° Southeast 494 568 37,000  Level FlightAware ADS-B
Sat 06:34:43 AM 35.1870 29.0390 127° Southeast 495 570 37,000  Level FlightAware ADS-B
Sat 06:35:31 AM 35.1210 29.1470 127° Southeast 495 570 37,000  Level FlightAware ADS-B
Sat 06:35:45 AM 35.1030 29.1770 126° Southeast 495 570 37,000  Level FlightAware ADS-B
Sat 06:36:51 AM 35.0120 29.3260 127° Southeast 496 571 37,000  Level FlightAware ADS-B
Sat 06:37:35 AM 34.9530 29.4240 126° Southeast 496 571 37,000  Level FlightAware ADS-B
Sat 06:38:14 AM 34.9020 29.5070 127° Southeast 37,000  Level FlightAware ADS-B
Sat 06:39:08 AM 34.8300 29.6230 127° Southeast 490 564 37,000  Level FlightAware ADS-B
Sat 06:39:47 AM 34.7710 29.7200 127° Southeast 489 563 37,000  Level FlightAware ADS-B
Sat 06:40:28 AM 34.7150 29.8110 127° Southeast 489 563 37,000  Level FlightAware ADS-B
Sat 06:41:12 AM 34.6560 29.9070 127° Southeast 489 563 37,000  Level FlightAware ADS-B
Sat 06:41:55 AM 34.6040 29.9930 126° Southeast 489 563 37,000  Level FlightAware ADS-B
Sat 06:42:53 AM 34.5310 30.1350 122° Southeast 491 565 37,000  Level FlightAware ADS-B
Sat 06:43:28 AM 34.4900 30.2200 120° Southeast 491 565 37,000  Level FlightAware ADS-B
Sat 06:44:29 AM 34.4180 30.3710 120° Southeast 491 565 37,000  Level FlightAware ADS-B
Sat 06:45:05 AM 34.3750 30.4590 121° Southeast 491 565 37,000  Level FlightAware ADS-B
Sat 06:45:50 AM 34.3220 30.5680 120° Southeast 490 564 37,000  Level FlightAware ADS-B
Sat 06:46:51 AM 34.2520 30.7130 120° Southeast 490 564 37,000  Level FlightAware ADS-B
Sat 06:47:36 AM 34.2040 30.8130 120° Southeast 490 564 37,000  Level FlightAware ADS-B
Sat 06:48:11 AM 34.1600 30.9040 120° Southeast 490 564 37,000  Level FlightAware ADS-B
Sat 06:48:26 AM 34.1430 30.9390 120° Southeast 490 564 37,000  Level FlightAware ADS-B
Sat 06:49:12 AM 34.0900 31.0460 121° Southeast 492 566 37,000  Level FlightAware ADS-B
Sat 06:49:51 AM 34.0430 31.1440 120° Southeast 492 566 37,000  Level FlightAware ADS-B
Sat 06:50:32 AM 33.9980 31.2350 121° Southeast 493 567 37,000  Level FlightAware ADS-B
Sat 06:51:18 AM 33.9430 31.3490 120° Southeast 493 567 37,000  Level FlightAware ADS-B
Sat 06:52:08 AM 33.8820 31.4710 121° Southeast 495 570 37,000  Level FlightAware ADS-B
Sat 06:52:54 AM 33.8300 31.5780 120° Southeast 500 575 37,000  Level FlightAware ADS-B
Sat 06:53:23 AM 33.7950 31.6470 121° Southeast 502 578 37,000  Level FlightAware ADS-B
Sat 06:53:59 AM 33.7520 31.7340 121° Southeast 503 579 37,000  Level FlightAware ADS-B
Sat 06:54:39 AM 33.7030 31.8340 120° Southeast 505 581 37,000  Level FlightAware ADS-B
Sat 06:55:29 AM 33.6430 31.9540 121° Southeast 507 583 37,000  Level FlightAware ADS-B
Sat 06:56:15 AM 33.5890 32.0620 121° Southeast 508 585 37,000  Level FlightAware ADS-B
Sat 06:56:49 AM 33.5470 32.1450 121° Southeast 505 581 37,000  Level FlightAware ADS-B
Sat 06:57:35 AM 33.4940 32.2500 121° Southeast 509 586 37,000  Level FlightAware ADS-B
Sat 06:58:09 AM 33.4510 32.3350 121° Southeast 509 586 37,000  Level FlightAware ADS-B
Sat 06:58:49 AM 33.4020 32.4330 121° Southeast 509 586 37,000  Level FlightAware ADS-B
Sat 06:59:24 AM 33.3570 32.5220 121° Southeast 505 581 37,000  Level FlightAware ADS-B
Sat 07:00:16 AM 33.2960 32.6430 121° Southeast 510 587 37,000 -839 Level FlightAware ADS-B
Sat 07:00:57 AM 33.2440 32.7440 122° Southeast 506 582 35,700 -2,080 Descending FlightAware ADS-B
Sat 07:01:31 AM 33.2040 32.8220 121° Southeast 496 571 34,400 -2,250 Descending FlightAware ADS-B
Sat 07:01:45 AM 33.1900 32.8510 120° Southeast 494 568 33,900 -2,769 Descending FlightAware ADS-B
Sat 07:02:49 AM 33.1120 33.0040 121° Southeast 480 552 30,800 -2,743 Descending FlightAware ADS-B
Sat 07:03:30 AM 33.0680 33.0900 121° Southeast 470 541 29,100 -2,519 Descending FlightAware ADS-B
Sat 07:04:10 AM 33.0240 33.1770 121° Southeast 462 532 27,400 -2,278 Descending FlightAware ADS-B
Sat 07:04:49 AM 32.9790 33.2670 121° Southeast 438 504 26,100 -1,952 Descending FlightAware ADS-B
Sat 07:05:33 AM 32.9340 33.3560 121° Southeast 415 478 24,700 -1,829 Descending FlightAware ADS-B
Sat 07:06:11 AM 32.8970 33.4290 121° Southeast 398 458 23,600 -1,750 Descending FlightAware ADS-B
Sat 07:06:45 AM 32.8650 33.4910 122° Southeast 386 444 22,600 -1,629 Descending FlightAware ADS-B
Sat 07:07:21 AM 32.8340 33.5530 121° Southeast 381 438 21,700 -1,606 Descending FlightAware ADS-B
Sat 07:07:56 AM 32.7990 33.6200 122° Southeast 387 445 20,700 -1,652 Descending FlightAware ADS-B
Sat 07:08:30 AM 32.7650 33.6800 124° Southeast 392 451 19,800 -1,629 Descending FlightAware ADS-B
Sat 07:09:06 AM 32.7270 33.7420 126° Southeast 389 448 18,800 -1,667 Descending FlightAware ADS-B
Sat 07:09:42 AM 32.6880 33.8030 127° Southeast 382 440 17,800 -1,571 Descending FlightAware ADS-B
Sat 07:10:30 AM 32.6380 33.8830 127° Southeast 376 433 16,600 -1,571 Descending FlightAware ADS-B
Sat 07:11:06 AM 32.6000 33.9430 127° Southeast 371 427 15,600 -1,605 Descending FlightAware ADS-B
Sat 07:11:56 AM 32.5500 34.0230 127° Southeast 366 421 14,300 -1,516 Descending FlightAware ADS-B
Sat 07:12:37 AM 32.5080 34.0890 127° Southeast 365 420 13,300 -1,500 Descending FlightAware ADS-B
Sat 07:13:16 AM 32.4690 34.1510 127° Southeast 356 410 12,300 -1,520 Descending FlightAware ADS-B
Sat 07:13:52 AM 32.4330 34.2060 128° Southeast 343 395 11,400 -1,412 Descending FlightAware ADS-B
Sat 07:14:24 AM 32.4010 34.2530 129° Southeast 333 383 10,700 -1,054 Descending FlightAware ADS-B
Sat 07:15:06 AM 32.3630 34.3120 127° Southeast 304 350 10,100 -632 Descending FlightAware ADS-B
Sat 07:15:40 AM 32.3360 34.3550 127° Southeast 286 329 9,900 -357 Descending FlightAware ADS-B
Sat 07:16:30 AM 32.3020 34.4110 126° Southeast 287 330 9,600 -207 Descending FlightAware ADS-B
Sat 07:17:07 AM 32.2780 34.4510 125° Southeast 287 330 9,600 -1,846 Level FlightAware ADS-B
Sat 07:17:35 AM 32.2580 34.4910 121° Southeast 269 310 7,600 -2,571 Descending FlightAware ADS-B
Sat 07:18:17 AM 32.2270 34.5460 124° Southeast 265 305 6,600 -1,319 Descending FlightAware ADS-B
Sat 07:19:06 AM 32.1950 34.6030 124° Southeast 263 303 5,600 -1,055 Descending FlightAware ADS-B
Sat 07:19:48 AM 32.1660 34.6540 124° Southeast 262 302 5,000 -500 Descending FlightAware ADS-B
Sat 07:20:18 AM 32.1460 34.6890 124° Southeast 237 273 5,000  Level FlightAware ADS-B
Sat 07:21:00 AM 32.1220 34.7310 124° Southeast 226 260 5,000  Level FlightAware ADS-B
Sat 07:21:30 AM 32.1040 34.7630 124° Southeast 211 243 5,000  Level FlightAware ADS-B
Sat 07:22:23 AM 32.0730 34.8100 128° Southeast 209 241 5,000 -200 Level FlightAware ADS-B
Sat 07:23:00 AM 32.0530 34.8330 136° Southeast 185 213 4,700 -429 Descending FlightAware ADS-B
Sat 07:23:33 AM 32.0290 34.8600 136° Southeast 184 212 4,500 -667 Descending FlightAware ADS-B
Sat 07:24:12 AM 32.0090 34.8810 138° Southeast 186 214 3,900 -794 Descending FlightAware ADS-B
Sat 07:24:41 AM 31.9900 34.9040 134° Southeast 185 213 3,600 -1,048 Descending FlightAware ADS-B
Sat 07:25:15 AM 31.9950 34.9390 80° East 161 185 2,800 -1,176 Descending FlightAware ADS-B
Sat 07:25:32 AM 31.9970 34.9510 79° East 160 184 2,600 -800 Descending FlightAware ADS-B
Sat 07:26:15 AM 32.0050 34.9840 74° East 158 182 2,000 -514 Descending FlightAware ADS-B
Sat 07:26:42 AM 32.0120 35.0020 65° Northeast 158 182 2,000  Level FlightAware ADS-B

Login

Don't have an account? Register now (free) for customized features, flight alerts, and more!